<?xml version='1.0' encoding='UTF-8'?><gpx version="1.1" creator="JPX - https://github.com/jenetics/jpx" xmlns="http://www.topografix.com/GPX/1/1"><trk><trkseg><trkpt lat="45.7920541" lon="11.0216558"><ele>154.4</ele><time>2026-04-03T13:37:35.731Z</time></trkpt><trkpt lat="45.7919771" lon="11.0216195"><ele>153.8</ele><time>2026-04-03T13:39:20.728Z</time></trkpt><trkpt lat="45.7918788" lon="11.0215416"><ele>153.2</ele><time>2026-04-03T13:39:22.739Z</time></trkpt><trkpt lat="45.7917998" lon="11.0214764"><ele>152.6</ele><time>2026-04-03T13:39:24.744Z</time></trkpt><trkpt lat="45.7917224" lon="11.0215454"><ele>152.0</ele><time>2026-04-03T13:39:27.73Z</time></trkpt><trkpt lat="45.7917036" lon="11.0216563"><ele>153.0</ele><time>2026-04-03T13:39:28.737Z</time></trkpt><trkpt lat="45.7916832" lon="11.0218"><ele>154.0</ele><time>2026-04-03T13:39:29.731Z</time></trkpt><trkpt lat="45.7916581" lon="11.0219467"><ele>155.0</ele><time>2026-04-03T13:39:30.727Z</time></trkpt><trkpt lat="45.7916428" lon="11.0220612"><ele>156.0</ele><time>2026-04-03T13:39:31.732Z</time></trkpt><trkpt lat="45.7916361" lon="11.0221599"><ele>157.0</ele><time>2026-04-03T13:39:32.74Z</time></trkpt><trkpt lat="45.7916573" lon="11.022262"><ele>158.0</ele><time>2026-04-03T13:39:33.745Z</time></trkpt><trkpt lat="45.7916953" lon="11.0223512"><ele>158.0</ele><time>2026-04-03T13:39:34.727Z</time></trkpt><trkpt lat="45.7917573" lon="11.0224172"><ele>158.0</ele><time>2026-04-03T13:39:35.736Z</time></trkpt><trkpt lat="45.7918237" lon="11.0224563"><ele>158.0</ele><time>2026-04-03T13:39:36.735Z</time></trkpt><trkpt lat="45.7919287" lon="11.0225052"><ele>158.0</ele><time>2026-04-03T13:39:38.748Z</time></trkpt><trkpt lat="45.7919973" lon="11.0225405"><ele>158.0</ele><time>2026-04-03T13:39:40.734Z</time></trkpt><trkpt lat="45.7920742" lon="11.0225777"><ele>158.0</ele><time>2026-04-03T13:39:43.729Z</time></trkpt><trkpt lat="45.7921455" lon="11.0226244"><ele>158.20000000000002</ele><time>2026-04-03T13:39:45.731Z</time></trkpt><trkpt lat="45.7922529" lon="11.0227257"><ele>158.4</ele><time>2026-04-03T13:39:47.75Z</time></trkpt><trkpt lat="45.7923429" lon="11.0227726"><ele>158.60000000000002</ele><time>2026-04-03T13:39:48.742Z</time></trkpt><trkpt lat="45.7924158" lon="11.0227969"><ele>158.8</ele><time>2026-04-03T13:39:49.763Z</time></trkpt><trkpt lat="45.7925119" lon="11.0227451"><ele>159.0</ele><time>2026-04-03T13:39:51.736Z</time></trkpt><trkpt lat="45.7925537" lon="11.0226624"><ele>159.0</ele><time>2026-04-03T13:39:52.733Z</time></trkpt><trkpt lat="45.7925943" lon="11.02254"><ele>159.0</ele><time>2026-04-03T13:39:53.739Z</time></trkpt><trkpt lat="45.7926229" lon="11.0224141"><ele>159.0</ele><time>2026-04-03T13:39:54.728Z</time></trkpt><trkpt lat="45.7926459" lon="11.022301"><ele>159.0</ele><time>2026-04-03T13:39:55.74Z</time></trkpt><trkpt lat="45.7926682" lon="11.0221945"><ele>159.0</ele><time>2026-04-03T13:39:56.74Z</time></trkpt><trkpt lat="45.7927212" lon="11.0220863"><ele>159.0</ele><time>2026-04-03T13:39:58.726Z</time></trkpt><trkpt lat="45.7927803" lon="11.0220526"><ele>156.75</ele><time>2026-04-03T13:40:00.734Z</time></trkpt><trkpt lat="45.7928936" lon="11.0221192"><ele>154.5</ele><time>2026-04-03T13:40:02.736Z</time></trkpt><trkpt lat="45.7929853" lon="11.0222048"><ele>152.25</ele><time>2026-04-03T13:40:03.751Z</time></trkpt><trkpt lat="45.7930982" lon="11.0223098"><ele>150.0</ele><time>2026-04-03T13:40:04.724Z</time></trkpt><trkpt lat="45.7932408" lon="11.0224308"><ele>149.66666666666666</ele><time>2026-04-03T13:40:05.736Z</time></trkpt><trkpt lat="45.7934013" lon="11.0225709"><ele>149.33333333333331</ele><time>2026-04-03T13:40:06.746Z</time></trkpt><trkpt lat="45.7935715" lon="11.0227231"><ele>149.0</ele><time>2026-04-03T13:40:07.732Z</time></trkpt><trkpt lat="45.7937449" lon="11.0228802"><ele>149.0</ele><time>2026-04-03T13:40:08.737Z</time></trkpt><trkpt lat="45.7939101" lon="11.0230312"><ele>149.0</ele><time>2026-04-03T13:40:09.75Z</time></trkpt><trkpt lat="45.7940771" lon="11.0231817"><ele>149.0</ele><time>2026-04-03T13:40:10.743Z</time></trkpt><trkpt lat="45.7942433" lon="11.0233345"><ele>148.66666666666666</ele><time>2026-04-03T13:40:11.743Z</time></trkpt><trkpt lat="45.7943936" lon="11.0234778"><ele>148.33333333333334</ele><time>2026-04-03T13:40:12.755Z</time></trkpt><trkpt lat="45.7945327" lon="11.0236218"><ele>148.0</ele><time>2026-04-03T13:40:13.741Z</time></trkpt><trkpt lat="45.7946575" lon="11.0237584"><ele>148.0</ele><time>2026-04-03T13:40:14.736Z</time></trkpt><trkpt lat="45.7947791" lon="11.0238984"><ele>148.0</ele><time>2026-04-03T13:40:15.741Z</time></trkpt><trkpt lat="45.7948928" lon="11.0240626"><ele>148.0</ele><time>2026-04-03T13:40:16.742Z</time></trkpt><trkpt lat="45.7949965" lon="11.0242298"><ele>148.8</ele><time>2026-04-03T13:40:17.747Z</time></trkpt><trkpt lat="45.7950742" lon="11.024367"><ele>149.60000000000002</ele><time>2026-04-03T13:40:18.751Z</time></trkpt><trkpt lat="45.7951391" lon="11.0244785"><ele>150.39999999999998</ele><time>2026-04-03T13:40:19.748Z</time></trkpt><trkpt lat="45.7952016" lon="11.0245652"><ele>151.2</ele><time>2026-04-03T13:40:20.737Z</time></trkpt><trkpt lat="45.7952575" lon="11.0246392"><ele>152.0</ele><time>2026-04-03T13:40:21.749Z</time></trkpt><trkpt lat="45.795308" lon="11.0247828"><ele>152.0</ele><time>2026-04-03T13:40:23.742Z</time></trkpt><trkpt lat="45.795309" lon="11.0248937"><ele>152.0</ele><time>2026-04-03T13:40:24.73Z</time></trkpt><trkpt lat="45.7952982" lon="11.0250068"><ele>152.0</ele><time>2026-04-03T13:40:25.743Z</time></trkpt><trkpt lat="45.7952621" lon="11.0251164"><ele>152.0</ele><time>2026-04-03T13:40:26.756Z</time></trkpt><trkpt lat="45.7952041" lon="11.0252341"><ele>152.0</ele><time>2026-04-03T13:40:27.738Z</time></trkpt><trkpt lat="45.7951481" lon="11.0253672"><ele>153.6</ele><time>2026-04-03T13:40:28.733Z</time></trkpt><trkpt lat="45.7950803" lon="11.0255005"><ele>155.2</ele><time>2026-04-03T13:40:29.741Z</time></trkpt><trkpt lat="45.7950141" lon="11.0256087"><ele>156.8</ele><time>2026-04-03T13:40:30.756Z</time></trkpt><trkpt lat="45.7949588" lon="11.0256861"><ele>158.4</ele><time>2026-04-03T13:40:31.752Z</time></trkpt><trkpt lat="45.7948626" lon="11.0257346"><ele>160.0</ele><time>2026-04-03T13:40:33.746Z</time></trkpt><trkpt lat="45.79474" lon="11.0256933"><ele>160.0</ele><time>2026-04-03T13:40:35.736Z</time></trkpt><trkpt lat="45.7946514" lon="11.0256336"><ele>160.0</ele><time>2026-04-03T13:40:36.752Z</time></trkpt><trkpt lat="45.7945563" lon="11.0255427"><ele>160.0</ele><time>2026-04-03T13:40:37.739Z</time></trkpt><trkpt lat="45.7944611" lon="11.025415"><ele>160.0</ele><time>2026-04-03T13:40:38.74Z</time></trkpt><trkpt lat="45.79437" lon="11.0252756"><ele>161.6</ele><time>2026-04-03T13:40:39.738Z</time></trkpt><trkpt lat="45.7942904" lon="11.0251759"><ele>163.2</ele><time>2026-04-03T13:40:40.745Z</time></trkpt><trkpt lat="45.7942113" lon="11.0251198"><ele>164.8</ele><time>2026-04-03T13:40:41.726Z</time></trkpt><trkpt lat="45.7941298" lon="11.0251171"><ele>166.4</ele><time>2026-04-03T13:40:42.733Z</time></trkpt><trkpt lat="45.7940477" lon="11.0251532"><ele>168.0</ele><time>2026-04-03T13:40:43.743Z</time></trkpt><trkpt lat="45.7939795" lon="11.025245"><ele>168.0</ele><time>2026-04-03T13:40:44.741Z</time></trkpt><trkpt lat="45.7938998" lon="11.0253777"><ele>168.0</ele><time>2026-04-03T13:40:45.74Z</time></trkpt><trkpt lat="45.7938105" lon="11.0255209"><ele>168.0</ele><time>2026-04-03T13:40:46.745Z</time></trkpt><trkpt lat="45.793688" lon="11.0256534"><ele>168.0</ele><time>2026-04-03T13:40:47.736Z</time></trkpt><trkpt lat="45.7935313" lon="11.0257879"><ele>172.33333333333334</ele><time>2026-04-03T13:40:48.742Z</time></trkpt><trkpt lat="45.7933641" lon="11.0259209"><ele>176.66666666666669</ele><time>2026-04-03T13:40:49.736Z</time></trkpt><trkpt lat="45.7931911" lon="11.0260598"><ele>181.0</ele><time>2026-04-03T13:40:50.737Z</time></trkpt><trkpt lat="45.7930397" lon="11.0262056"><ele>181.0</ele><time>2026-04-03T13:40:51.742Z</time></trkpt><trkpt lat="45.7929266" lon="11.0263676"><ele>181.0</ele><time>2026-04-03T13:40:52.744Z</time></trkpt><trkpt lat="45.7928259" lon="11.0265528"><ele>181.0</ele><time>2026-04-03T13:40:53.733Z</time></trkpt><trkpt lat="45.7927154" lon="11.0267703"><ele>185.33333333333334</ele><time>2026-04-03T13:40:54.735Z</time></trkpt><trkpt lat="45.7925907" lon="11.0269827"><ele>189.66666666666669</ele><time>2026-04-03T13:40:55.744Z</time></trkpt><trkpt lat="45.7924829" lon="11.027155"><ele>194.0</ele><time>2026-04-03T13:40:56.734Z</time></trkpt><trkpt lat="45.7924092" lon="11.0272772"><ele>194.0</ele><time>2026-04-03T13:40:57.742Z</time></trkpt><trkpt lat="45.792347" lon="11.0273451"><ele>194.0</ele><time>2026-04-03T13:40:58.729Z</time></trkpt><trkpt lat="45.7922626" lon="11.0273796"><ele>194.0</ele><time>2026-04-03T13:40:59.737Z</time></trkpt><trkpt lat="45.7921446" lon="11.0273889"><ele>194.0</ele><time>2026-04-03T13:41:00.729Z</time></trkpt><trkpt lat="45.792015" lon="11.0274315"><ele>194.0</ele><time>2026-04-03T13:41:01.749Z</time></trkpt><trkpt lat="45.7918979" lon="11.0274968"><ele>197.33333333333334</ele><time>2026-04-03T13:41:02.742Z</time></trkpt><trkpt lat="45.7917824" lon="11.0275863"><ele>200.66666666666669</ele><time>2026-04-03T13:41:03.741Z</time></trkpt><trkpt lat="45.7916513" lon="11.0277108"><ele>204.0</ele><time>2026-04-03T13:41:04.748Z</time></trkpt><trkpt lat="45.7914993" lon="11.0278719"><ele>204.0</ele><time>2026-04-03T13:41:05.729Z</time></trkpt><trkpt lat="45.7913538" lon="11.0280291"><ele>204.0</ele><time>2026-04-03T13:41:06.741Z</time></trkpt><trkpt lat="45.7912221" lon="11.0281625"><ele>204.0</ele><time>2026-04-03T13:41:07.741Z</time></trkpt><trkpt lat="45.7911129" lon="11.0282728"><ele>204.39999999999998</ele><time>2026-04-03T13:41:08.747Z</time></trkpt><trkpt lat="45.791036" lon="11.0283529"><ele>204.8</ele><time>2026-04-03T13:41:09.754Z</time></trkpt><trkpt lat="45.790982" lon="11.0284108"><ele>205.2</ele><time>2026-04-03T13:41:10.743Z</time></trkpt><trkpt lat="45.7908752" lon="11.0284169"><ele>205.60000000000002</ele><time>2026-04-03T13:41:12.732Z</time></trkpt><trkpt lat="45.7907912" lon="11.0283697"><ele>206.0</ele><time>2026-04-03T13:41:13.753Z</time></trkpt><trkpt lat="45.790705" lon="11.0282942"><ele>206.0</ele><time>2026-04-03T13:41:14.718Z</time></trkpt><trkpt lat="45.7906156" lon="11.0282106"><ele>206.0</ele><time>2026-04-03T13:41:15.74Z</time></trkpt><trkpt lat="45.7905191" lon="11.0281187"><ele>206.0</ele><time>2026-04-03T13:41:16.739Z</time></trkpt><trkpt lat="45.7904206" lon="11.0280202"><ele>206.0</ele><time>2026-04-03T13:41:17.749Z</time></trkpt><trkpt lat="45.7903179" lon="11.0279412"><ele>206.0</ele><time>2026-04-03T13:41:18.743Z</time></trkpt><trkpt lat="45.7902014" lon="11.0278828"><ele>206.0</ele><time>2026-04-03T13:41:19.739Z</time></trkpt><trkpt lat="45.790067" lon="11.0278322"><ele>206.0</ele><time>2026-04-03T13:41:20.732Z</time></trkpt><trkpt lat="45.789906" lon="11.0277833"><ele>206.0</ele><time>2026-04-03T13:41:21.736Z</time></trkpt><trkpt lat="45.7897657" lon="11.0277287"><ele>206.0</ele><time>2026-04-03T13:41:22.74Z</time></trkpt><trkpt lat="45.7896225" lon="11.0276748"><ele>206.0</ele><time>2026-04-03T13:41:23.737Z</time></trkpt><trkpt lat="45.7894597" lon="11.0276113"><ele>206.0</ele><time>2026-04-03T13:41:24.729Z</time></trkpt><trkpt lat="45.7892988" lon="11.0275467"><ele>205.33333333333334</ele><time>2026-04-03T13:41:25.725Z</time></trkpt><trkpt lat="45.7891415" lon="11.0274814"><ele>204.66666666666669</ele><time>2026-04-03T13:41:26.744Z</time></trkpt><trkpt lat="45.7889749" lon="11.0274112"><ele>204.0</ele><time>2026-04-03T13:41:27.739Z</time></trkpt><trkpt lat="45.7888018" lon="11.0273245"><ele>199.66666666666666</ele><time>2026-04-03T13:41:28.733Z</time></trkpt><trkpt lat="45.7886312" lon="11.0272331"><ele>195.33333333333331</ele><time>2026-04-03T13:41:29.74Z</time></trkpt><trkpt lat="45.788472" lon="11.027147"><ele>191.0</ele><time>2026-04-03T13:41:30.741Z</time></trkpt><trkpt lat="45.7883182" lon="11.0270722"><ele>189.66666666666666</ele><time>2026-04-03T13:41:31.729Z</time></trkpt><trkpt lat="45.7881582" lon="11.0269954"><ele>188.33333333333334</ele><time>2026-04-03T13:41:32.743Z</time></trkpt><trkpt lat="45.7879955" lon="11.0269199"><ele>187.0</ele><time>2026-04-03T13:41:33.747Z</time></trkpt><trkpt lat="45.7878428" lon="11.0268522"><ele>187.0</ele><time>2026-04-03T13:41:34.748Z</time></trkpt><trkpt lat="45.7876941" lon="11.0267871"><ele>187.0</ele><time>2026-04-03T13:41:35.732Z</time></trkpt><trkpt lat="45.7875424" lon="11.0267183"><ele>187.0</ele><time>2026-04-03T13:41:36.727Z</time></trkpt><trkpt lat="45.7873954" lon="11.0266529"><ele>184.0</ele><time>2026-04-03T13:41:37.729Z</time></trkpt><trkpt lat="45.7872642" lon="11.0265925"><ele>181.0</ele><time>2026-04-03T13:41:38.728Z</time></trkpt><trkpt lat="45.7871526" lon="11.0265392"><ele>178.0</ele><time>2026-04-03T13:41:39.736Z</time></trkpt><trkpt lat="45.7870466" lon="11.026493"><ele>175.0</ele><time>2026-04-03T13:41:40.733Z</time></trkpt><trkpt lat="45.7869501" lon="11.0264298"><ele>175.0</ele><time>2026-04-03T13:41:41.741Z</time></trkpt><trkpt lat="45.7868663" lon="11.0263174"><ele>175.0</ele><time>2026-04-03T13:41:42.746Z</time></trkpt><trkpt lat="45.7867902" lon="11.0261744"><ele>175.0</ele><time>2026-04-03T13:41:43.737Z</time></trkpt><trkpt lat="45.7867215" lon="11.0260221"><ele>175.0</ele><time>2026-04-03T13:41:44.73Z</time></trkpt><trkpt lat="45.7866623" lon="11.0258732"><ele>173.5</ele><time>2026-04-03T13:41:45.731Z</time></trkpt><trkpt lat="45.7866066" lon="11.0257128"><ele>172.0</ele><time>2026-04-03T13:41:46.747Z</time></trkpt><trkpt lat="45.7865521" lon="11.0255498"><ele>170.5</ele><time>2026-04-03T13:41:47.748Z</time></trkpt><trkpt lat="45.7864999" lon="11.0254071"><ele>169.0</ele><time>2026-04-03T13:41:48.726Z</time></trkpt><trkpt lat="45.7864563" lon="11.0252677"><ele>169.0</ele><time>2026-04-03T13:41:49.738Z</time></trkpt><trkpt lat="45.7864171" lon="11.0251175"><ele>169.0</ele><time>2026-04-03T13:41:50.728Z</time></trkpt><trkpt lat="45.7863757" lon="11.0249548"><ele>169.0</ele><time>2026-04-03T13:41:51.736Z</time></trkpt><trkpt lat="45.7863357" lon="11.0247911"><ele>169.0</ele><time>2026-04-03T13:41:52.741Z</time></trkpt><trkpt lat="45.7862955" lon="11.0246288"><ele>168.39999999999998</ele><time>2026-04-03T13:41:53.737Z</time></trkpt><trkpt lat="45.7862491" lon="11.0244657"><ele>167.8</ele><time>2026-04-03T13:41:54.746Z</time></trkpt><trkpt lat="45.7862081" lon="11.0243154"><ele>167.2</ele><time>2026-04-03T13:41:55.747Z</time></trkpt><trkpt lat="45.7861744" lon="11.024189"><ele>166.60000000000002</ele><time>2026-04-03T13:41:56.739Z</time></trkpt><trkpt lat="45.786148" lon="11.0241006"><ele>166.0</ele><time>2026-04-03T13:41:57.748Z</time></trkpt><trkpt lat="45.7860996" lon="11.0240349"><ele>166.20000000000002</ele><time>2026-04-03T13:41:59.748Z</time></trkpt><trkpt lat="45.7860004" lon="11.0240591"><ele>166.4</ele><time>2026-04-03T13:42:01.753Z</time></trkpt><trkpt lat="45.7859191" lon="11.0240642"><ele>166.6</ele><time>2026-04-03T13:42:02.741Z</time></trkpt><trkpt lat="45.785829" lon="11.0240733"><ele>166.8</ele><time>2026-04-03T13:42:03.736Z</time></trkpt><trkpt lat="45.785723" lon="11.0240838"><ele>167.0</ele><time>2026-04-03T13:42:04.728Z</time></trkpt><trkpt lat="45.7856056" lon="11.0240988"><ele>167.0</ele><time>2026-04-03T13:42:05.745Z</time></trkpt><trkpt lat="45.7854897" lon="11.0241152"><ele>167.0</ele><time>2026-04-03T13:42:06.738Z</time></trkpt><trkpt lat="45.7853725" lon="11.024133"><ele>167.0</ele><time>2026-04-03T13:42:07.75Z</time></trkpt><trkpt lat="45.7852587" lon="11.0241568"><ele>167.0</ele><time>2026-04-03T13:42:08.738Z</time></trkpt><trkpt lat="45.7851509" lon="11.0241948"><ele>169.2</ele><time>2026-04-03T13:42:09.744Z</time></trkpt><trkpt lat="45.785041" lon="11.0242305"><ele>171.39999999999998</ele><time>2026-04-03T13:42:10.747Z</time></trkpt><trkpt lat="45.7849335" lon="11.0242585"><ele>173.60000000000002</ele><time>2026-04-03T13:42:11.747Z</time></trkpt><trkpt lat="45.7848229" lon="11.0242873"><ele>175.8</ele><time>2026-04-03T13:42:12.749Z</time></trkpt><trkpt lat="45.7847105" lon="11.0243192"><ele>178.0</ele><time>2026-04-03T13:42:13.746Z</time></trkpt><trkpt lat="45.7845989" lon="11.0243511"><ele>178.0</ele><time>2026-04-03T13:42:14.758Z</time></trkpt><trkpt lat="45.7844857" lon="11.0243824"><ele>178.0</ele><time>2026-04-03T13:42:15.748Z</time></trkpt><trkpt lat="45.7843714" lon="11.0244223"><ele>178.0</ele><time>2026-04-03T13:42:16.748Z</time></trkpt><trkpt lat="45.7842581" lon="11.0244737"><ele>178.0</ele><time>2026-04-03T13:42:17.747Z</time></trkpt><trkpt lat="45.7841438" lon="11.0245341"><ele>179.0</ele><time>2026-04-03T13:42:18.745Z</time></trkpt><trkpt lat="45.7840323" lon="11.0245938"><ele>180.0</ele><time>2026-04-03T13:42:19.735Z</time></trkpt><trkpt lat="45.783932" lon="11.0246478"><ele>181.0</ele><time>2026-04-03T13:42:20.754Z</time></trkpt><trkpt lat="45.7838487" lon="11.0246935"><ele>182.0</ele><time>2026-04-03T13:42:21.741Z</time></trkpt><trkpt lat="45.7837745" lon="11.024737"><ele>183.0</ele><time>2026-04-03T13:42:22.737Z</time></trkpt><trkpt lat="45.7837127" lon="11.0247644"><ele>183.0</ele><time>2026-04-03T13:42:23.738Z</time></trkpt><trkpt lat="45.7835968" lon="11.0247697"><ele>183.0</ele><time>2026-04-03T13:42:25.753Z</time></trkpt><trkpt lat="45.7835272" lon="11.0247326"><ele>183.0</ele><time>2026-04-03T13:42:26.752Z</time></trkpt><trkpt lat="45.7834544" lon="11.0246729"><ele>183.0</ele><time>2026-04-03T13:42:27.737Z</time></trkpt><trkpt lat="45.7833927" lon="11.0246178"><ele>183.0</ele><time>2026-04-03T13:42:28.744Z</time></trkpt><trkpt lat="45.7832919" lon="11.0245508"><ele>182.66666666666666</ele><time>2026-04-03T13:42:30.752Z</time></trkpt><trkpt lat="45.7831928" lon="11.0245311"><ele>182.33333333333334</ele><time>2026-04-03T13:42:32.734Z</time></trkpt><trkpt lat="45.7831304" lon="11.0245122"><ele>182.0</ele><time>2026-04-03T13:42:33.748Z</time></trkpt><trkpt lat="45.7830565" lon="11.0244904"><ele>181.66666666666669</ele><time>2026-04-03T13:42:34.736Z</time></trkpt><trkpt lat="45.7829828" lon="11.0244659"><ele>181.33333333333334</ele><time>2026-04-03T13:42:35.744Z</time></trkpt><trkpt lat="45.7829206" lon="11.0244406"><ele>181.0</ele><time>2026-04-03T13:42:36.734Z</time></trkpt><trkpt lat="45.7828364" lon="11.0243681"><ele>181.0</ele><time>2026-04-03T13:42:38.745Z</time></trkpt><trkpt lat="45.7827903" lon="11.0241759"><ele>181.0</ele><time>2026-04-03T13:42:40.732Z</time></trkpt><trkpt lat="45.7827688" lon="11.0240496"><ele>181.0</ele><time>2026-04-03T13:42:41.735Z</time></trkpt><trkpt lat="45.7827412" lon="11.0239252"><ele>181.0</ele><time>2026-04-03T13:42:42.738Z</time></trkpt><trkpt lat="45.7827173" lon="11.0238288"><ele>181.0</ele><time>2026-04-03T13:42:43.748Z</time></trkpt><trkpt lat="45.7826619" lon="11.0236985"><ele>181.0</ele><time>2026-04-03T13:42:45.743Z</time></trkpt><trkpt lat="45.782608" lon="11.0236397"><ele>181.0</ele><time>2026-04-03T13:42:46.749Z</time></trkpt><trkpt lat="45.7825437" lon="11.0235579"><ele>181.0</ele><time>2026-04-03T13:42:47.745Z</time></trkpt><trkpt lat="45.7824888" lon="11.0234588"><ele>181.0</ele><time>2026-04-03T13:42:48.762Z</time></trkpt><trkpt lat="45.7824443" lon="11.0233674"><ele>181.0</ele><time>2026-04-03T13:42:49.73Z</time></trkpt><trkpt lat="45.7823612" lon="11.0232581"><ele>181.0</ele><time>2026-04-03T13:42:51.742Z</time></trkpt><trkpt lat="45.7822927" lon="11.0231984"><ele>180.4</ele><time>2026-04-03T13:42:53.738Z</time></trkpt><trkpt lat="45.7822246" lon="11.0230934"><ele>179.8</ele><time>2026-04-03T13:42:55.736Z</time></trkpt><trkpt lat="45.7821723" lon="11.0229449"><ele>179.20000000000002</ele><time>2026-04-03T13:42:57.741Z</time></trkpt><trkpt lat="45.7821396" lon="11.0228121"><ele>178.60000000000002</ele><time>2026-04-03T13:42:59.735Z</time></trkpt><trkpt lat="45.7821202" lon="11.0227119"><ele>178.0</ele><time>2026-04-03T13:43:01.738Z</time></trkpt><trkpt lat="45.7821183" lon="11.0225832"><ele>177.4</ele><time>2026-04-03T13:43:04.744Z</time></trkpt><trkpt lat="45.7821153" lon="11.0224622"><ele>176.8</ele><time>2026-04-03T13:43:06.742Z</time></trkpt><trkpt lat="45.7821198" lon="11.0223519"><ele>176.2</ele><time>2026-04-03T13:43:08.761Z</time></trkpt><trkpt lat="45.7821389" lon="11.0221518"><ele>175.6</ele><time>2026-04-03T13:43:10.736Z</time></trkpt><trkpt lat="45.7821512" lon="11.0220288"><ele>175.0</ele><time>2026-04-03T13:43:11.722Z</time></trkpt><trkpt lat="45.7821647" lon="11.0219065"><ele>175.0</ele><time>2026-04-03T13:43:12.736Z</time></trkpt><trkpt lat="45.7821697" lon="11.0218029"><ele>175.0</ele><time>2026-04-03T13:43:13.733Z</time></trkpt><trkpt lat="45.7821129" lon="11.0216361"><ele>175.0</ele><time>2026-04-03T13:43:15.736Z</time></trkpt><trkpt lat="45.7820495" lon="11.0215322"><ele>175.0</ele><time>2026-04-03T13:43:16.736Z</time></trkpt><trkpt lat="45.7819706" lon="11.0214144"><ele>175.0</ele><time>2026-04-03T13:43:17.751Z</time></trkpt><trkpt lat="45.7818915" lon="11.0213098"><ele>173.25</ele><time>2026-04-03T13:43:18.732Z</time></trkpt><trkpt lat="45.7817948" lon="11.0212285"><ele>171.5</ele><time>2026-04-03T13:43:19.742Z</time></trkpt><trkpt lat="45.7816706" lon="11.0211771"><ele>169.75</ele><time>2026-04-03T13:43:20.744Z</time></trkpt><trkpt lat="45.7815245" lon="11.0211278"><ele>168.0</ele><time>2026-04-03T13:43:21.748Z</time></trkpt><trkpt lat="45.7813699" lon="11.0210482"><ele>168.0</ele><time>2026-04-03T13:43:22.732Z</time></trkpt><trkpt lat="45.7812229" lon="11.0209443"><ele>168.0</ele><time>2026-04-03T13:43:23.73Z</time></trkpt><trkpt lat="45.7810921" lon="11.0208285"><ele>168.0</ele><time>2026-04-03T13:43:24.745Z</time></trkpt><trkpt lat="45.7809745" lon="11.0207148"><ele>166.75</ele><time>2026-04-03T13:43:25.744Z</time></trkpt><trkpt lat="45.7808747" lon="11.0205959"><ele>165.5</ele><time>2026-04-03T13:43:26.745Z</time></trkpt><trkpt lat="45.7807846" lon="11.0204754"><ele>164.25</ele><time>2026-04-03T13:43:27.747Z</time></trkpt><trkpt lat="45.7807028" lon="11.0203608"><ele>163.0</ele><time>2026-04-03T13:43:28.729Z</time></trkpt><trkpt lat="45.7806246" lon="11.0202547"><ele>163.0</ele><time>2026-04-03T13:43:29.74Z</time></trkpt><trkpt lat="45.7805533" lon="11.0201529"><ele>163.0</ele><time>2026-04-03T13:43:30.754Z</time></trkpt><trkpt lat="45.7804903" lon="11.0200634"><ele>163.0</ele><time>2026-04-03T13:43:31.732Z</time></trkpt><trkpt lat="45.780429" lon="11.0199795"><ele>163.0</ele><time>2026-04-03T13:43:32.735Z</time></trkpt><trkpt lat="45.7803714" lon="11.0198945"><ele>163.0</ele><time>2026-04-03T13:43:33.743Z</time></trkpt><trkpt lat="45.780308" lon="11.0197992"><ele>163.0</ele><time>2026-04-03T13:43:34.734Z</time></trkpt><trkpt lat="45.7802241" lon="11.0196973"><ele>162.0</ele><time>2026-04-03T13:43:35.734Z</time></trkpt><trkpt lat="45.7801307" lon="11.0196"><ele>161.0</ele><time>2026-04-03T13:43:36.74Z</time></trkpt><trkpt lat="45.7800331" lon="11.0195015"><ele>160.0</ele><time>2026-04-03T13:43:37.738Z</time></trkpt><trkpt lat="45.7799471" lon="11.0194096"><ele>159.0</ele><time>2026-04-03T13:43:38.729Z</time></trkpt><trkpt lat="45.7798775" lon="11.0193264"><ele>158.0</ele><time>2026-04-03T13:43:39.724Z</time></trkpt><trkpt lat="45.7798194" lon="11.0192563"><ele>158.0</ele><time>2026-04-03T13:43:40.725Z</time></trkpt><trkpt lat="45.7797534" lon="11.0191661"><ele>158.0</ele><time>2026-04-03T13:43:42.722Z</time></trkpt><trkpt lat="45.7796901" lon="11.0191145"><ele>158.0</ele><time>2026-04-03T13:43:45.742Z</time></trkpt><trkpt lat="45.7795638" lon="11.0190434"><ele>158.0</ele><time>2026-04-03T13:43:47.742Z</time></trkpt><trkpt lat="45.7794891" lon="11.0189955"><ele>158.0</ele><time>2026-04-03T13:43:48.726Z</time></trkpt><trkpt lat="45.779409" lon="11.0189421"><ele>157.0</ele><time>2026-04-03T13:43:49.74Z</time></trkpt><trkpt lat="45.7793272" lon="11.0188957"><ele>156.0</ele><time>2026-04-03T13:43:50.74Z</time></trkpt><trkpt lat="45.7792519" lon="11.0188528"><ele>155.0</ele><time>2026-04-03T13:43:51.741Z</time></trkpt><trkpt lat="45.7791756" lon="11.0188171"><ele>154.0</ele><time>2026-04-03T13:43:52.736Z</time></trkpt><trkpt lat="45.7790855" lon="11.0187816"><ele>153.0</ele><time>2026-04-03T13:43:53.739Z</time></trkpt><trkpt lat="45.7789836" lon="11.0187452"><ele>152.0</ele><time>2026-04-03T13:43:54.746Z</time></trkpt><trkpt lat="45.7788784" lon="11.0187105"><ele>152.0</ele><time>2026-04-03T13:43:55.741Z</time></trkpt><trkpt lat="45.7787712" lon="11.0186661"><ele>152.0</ele><time>2026-04-03T13:43:56.748Z</time></trkpt><trkpt lat="45.7786612" lon="11.0186184"><ele>152.0</ele><time>2026-04-03T13:43:57.742Z</time></trkpt><trkpt lat="45.7785612" lon="11.0185708"><ele>152.0</ele><time>2026-04-03T13:43:58.73Z</time></trkpt><trkpt lat="45.7784823" lon="11.0185358"><ele>152.0</ele><time>2026-04-03T13:43:59.741Z</time></trkpt><trkpt lat="45.7783636" lon="11.0184988"><ele>152.2</ele><time>2026-04-03T13:44:01.75Z</time></trkpt><trkpt lat="45.7782506" lon="11.0185294"><ele>152.39999999999998</ele><time>2026-04-03T13:44:03.742Z</time></trkpt><trkpt lat="45.7781356" lon="11.0185731"><ele>152.60000000000002</ele><time>2026-04-03T13:44:05.729Z</time></trkpt><trkpt lat="45.7780579" lon="11.0185606"><ele>152.8</ele><time>2026-04-03T13:44:06.743Z</time></trkpt><trkpt lat="45.7779603" lon="11.0185156"><ele>153.0</ele><time>2026-04-03T13:44:07.733Z</time></trkpt><trkpt lat="45.777839" lon="11.0184509"><ele>153.0</ele><time>2026-04-03T13:44:08.742Z</time></trkpt><trkpt lat="45.7777084" lon="11.0183896"><ele>153.0</ele><time>2026-04-03T13:44:09.742Z</time></trkpt><trkpt lat="45.7775845" lon="11.0183441"><ele>153.0</ele><time>2026-04-03T13:44:10.729Z</time></trkpt><trkpt lat="45.7774798" lon="11.0183062"><ele>153.0</ele><time>2026-04-03T13:44:11.74Z</time></trkpt><trkpt lat="45.7773852" lon="11.0182504"><ele>152.75</ele><time>2026-04-03T13:44:12.732Z</time></trkpt><trkpt lat="45.7772781" lon="11.0181646"><ele>152.5</ele><time>2026-04-03T13:44:13.74Z</time></trkpt><trkpt lat="45.7771438" lon="11.018061"><ele>152.25</ele><time>2026-04-03T13:44:14.74Z</time></trkpt><trkpt lat="45.7769951" lon="11.0179458"><ele>152.0</ele><time>2026-04-03T13:44:15.729Z</time></trkpt><trkpt lat="45.7768389" lon="11.0178281"><ele>152.0</ele><time>2026-04-03T13:44:16.745Z</time></trkpt><trkpt lat="45.7766859" lon="11.0177083"><ele>152.0</ele><time>2026-04-03T13:44:17.744Z</time></trkpt><trkpt lat="45.7765439" lon="11.0175974"><ele>152.0</ele><time>2026-04-03T13:44:18.746Z</time></trkpt><trkpt lat="45.7764168" lon="11.0174965"><ele>151.25</ele><time>2026-04-03T13:44:19.744Z</time></trkpt><trkpt lat="45.7763062" lon="11.0173996"><ele>150.5</ele><time>2026-04-03T13:44:20.744Z</time></trkpt><trkpt lat="45.7762087" lon="11.0173026"><ele>149.75</ele><time>2026-04-03T13:44:21.736Z</time></trkpt><trkpt lat="45.7761173" lon="11.0171907"><ele>149.0</ele><time>2026-04-03T13:44:22.742Z</time></trkpt><trkpt lat="45.776023" lon="11.0170594"><ele>149.25</ele><time>2026-04-03T13:44:23.747Z</time></trkpt><trkpt lat="45.7759263" lon="11.0169347"><ele>149.5</ele><time>2026-04-03T13:44:24.748Z</time></trkpt><trkpt lat="45.7758139" lon="11.0168206"><ele>149.75</ele><time>2026-04-03T13:44:25.745Z</time></trkpt><trkpt lat="45.7757099" lon="11.0167191"><ele>150.0</ele><time>2026-04-03T13:44:26.746Z</time></trkpt><trkpt lat="45.7756274" lon="11.0166332"><ele>149.66666666666666</ele><time>2026-04-03T13:44:27.733Z</time></trkpt><trkpt lat="45.7755523" lon="11.0165687"><ele>149.33333333333334</ele><time>2026-04-03T13:44:28.749Z</time></trkpt><trkpt lat="45.775487" lon="11.0165029"><ele>149.0</ele><time>2026-04-03T13:44:29.731Z</time></trkpt><trkpt lat="45.7754365" lon="11.0164064"><ele>148.66666666666669</ele><time>2026-04-03T13:44:30.73Z</time></trkpt><trkpt lat="45.7753892" lon="11.0163158"><ele>148.33333333333334</ele><time>2026-04-03T13:44:31.745Z</time></trkpt><trkpt lat="45.775312" lon="11.0162677"><ele>148.0</ele><time>2026-04-03T13:44:32.743Z</time></trkpt><trkpt lat="45.7752128" lon="11.0162463"><ele>148.25</ele><time>2026-04-03T13:44:33.744Z</time></trkpt><trkpt lat="45.7751071" lon="11.0161938"><ele>148.5</ele><time>2026-04-03T13:44:34.733Z</time></trkpt><trkpt lat="45.774991" lon="11.0160838"><ele>148.75</ele><time>2026-04-03T13:44:35.746Z</time></trkpt><trkpt lat="45.7748594" lon="11.015929"><ele>149.0</ele><time>2026-04-03T13:44:36.742Z</time></trkpt><trkpt lat="45.7747234" lon="11.015764"><ele>149.0</ele><time>2026-04-03T13:44:37.74Z</time></trkpt><trkpt lat="45.774582" lon="11.0156063"><ele>149.0</ele><time>2026-04-03T13:44:38.737Z</time></trkpt><trkpt lat="45.7744402" lon="11.0154493"><ele>149.0</ele><time>2026-04-03T13:44:39.731Z</time></trkpt><trkpt lat="45.7742892" lon="11.0152866"><ele>149.33333333333331</ele><time>2026-04-03T13:44:40.747Z</time></trkpt><trkpt lat="45.7741347" lon="11.0151349"><ele>149.66666666666666</ele><time>2026-04-03T13:44:41.743Z</time></trkpt><trkpt lat="45.7739654" lon="11.0149966"><ele>150.0</ele><time>2026-04-03T13:44:42.73Z</time></trkpt><trkpt lat="45.7738088" lon="11.0148845"><ele>149.5</ele><time>2026-04-03T13:44:43.737Z</time></trkpt><trkpt lat="45.7736663" lon="11.0147807"><ele>149.0</ele><time>2026-04-03T13:44:44.751Z</time></trkpt><trkpt lat="45.7735459" lon="11.0146862"><ele>148.5</ele><time>2026-04-03T13:44:45.731Z</time></trkpt><trkpt lat="45.773441" lon="11.0146054"><ele>148.0</ele><time>2026-04-03T13:44:46.74Z</time></trkpt><trkpt lat="45.7733462" lon="11.0145452"><ele>148.0</ele><time>2026-04-03T13:44:47.731Z</time></trkpt><trkpt lat="45.7732688" lon="11.0144923"><ele>148.0</ele><time>2026-04-03T13:44:48.745Z</time></trkpt><trkpt lat="45.7732094" lon="11.0144598"><ele>148.0</ele><time>2026-04-03T13:44:49.748Z</time></trkpt><trkpt lat="45.7731449" lon="11.0144403"><ele>148.0</ele><time>2026-04-03T13:44:50.744Z</time></trkpt><trkpt lat="45.773067" lon="11.0144249"><ele>148.0</ele><time>2026-04-03T13:44:51.741Z</time></trkpt><trkpt lat="45.7729805" lon="11.0143941"><ele>148.0</ele><time>2026-04-03T13:44:52.739Z</time></trkpt><trkpt lat="45.7728858" lon="11.0143475"><ele>148.0</ele><time>2026-04-03T13:44:53.739Z</time></trkpt><trkpt lat="45.7727825" lon="11.014293"><ele>148.0</ele><time>2026-04-03T13:44:54.742Z</time></trkpt><trkpt lat="45.7726755" lon="11.0142267"><ele>148.0</ele><time>2026-04-03T13:44:55.734Z</time></trkpt><trkpt lat="45.7725654" lon="11.0141449"><ele>148.0</ele><time>2026-04-03T13:44:56.734Z</time></trkpt><trkpt lat="45.7724487" lon="11.0140627"><ele>148.5</ele><time>2026-04-03T13:44:57.744Z</time></trkpt><trkpt lat="45.7723246" lon="11.0139925"><ele>149.0</ele><time>2026-04-03T13:44:58.74Z</time></trkpt><trkpt lat="45.7721984" lon="11.0139213"><ele>149.5</ele><time>2026-04-03T13:44:59.746Z</time></trkpt><trkpt lat="45.7720722" lon="11.0138437"><ele>150.0</ele><time>2026-04-03T13:45:00.74Z</time></trkpt><trkpt lat="45.771943" lon="11.0137511"><ele>150.66666666666666</ele><time>2026-04-03T13:45:01.723Z</time></trkpt><trkpt lat="45.7718026" lon="11.013645"><ele>151.33333333333331</ele><time>2026-04-03T13:45:02.726Z</time></trkpt><trkpt lat="45.7716625" lon="11.0135316"><ele>152.0</ele><time>2026-04-03T13:45:03.742Z</time></trkpt><trkpt lat="45.7715295" lon="11.0134268"><ele>152.0</ele><time>2026-04-03T13:45:04.728Z</time></trkpt><trkpt lat="45.7714201" lon="11.0133403"><ele>152.0</ele><time>2026-04-03T13:45:05.749Z</time></trkpt><trkpt lat="45.7713381" lon="11.0132648"><ele>152.0</ele><time>2026-04-03T13:45:06.722Z</time></trkpt><trkpt lat="45.7712637" lon="11.0131639"><ele>152.0</ele><time>2026-04-03T13:45:07.734Z</time></trkpt><trkpt lat="45.7712026" lon="11.0130393"><ele>152.0</ele><time>2026-04-03T13:45:08.741Z</time></trkpt><trkpt lat="45.7711423" lon="11.0129311"><ele>151.5</ele><time>2026-04-03T13:45:09.738Z</time></trkpt><trkpt lat="45.7710592" lon="11.0128509"><ele>151.0</ele><time>2026-04-03T13:45:10.738Z</time></trkpt><trkpt lat="45.7709469" lon="11.0128082"><ele>150.5</ele><time>2026-04-03T13:45:11.736Z</time></trkpt><trkpt lat="45.7708148" lon="11.0127782"><ele>150.0</ele><time>2026-04-03T13:45:12.728Z</time></trkpt><trkpt lat="45.7706715" lon="11.0127424"><ele>150.0</ele><time>2026-04-03T13:45:13.736Z</time></trkpt><trkpt lat="45.7705225" lon="11.0126961"><ele>150.0</ele><time>2026-04-03T13:45:14.747Z</time></trkpt><trkpt lat="45.7703782" lon="11.0126465"><ele>150.0</ele><time>2026-04-03T13:45:15.742Z</time></trkpt><trkpt lat="45.7702458" lon="11.0125927"><ele>150.0</ele><time>2026-04-03T13:45:16.747Z</time></trkpt><trkpt lat="45.7701358" lon="11.0125459"><ele>150.4</ele><time>2026-04-03T13:45:17.746Z</time></trkpt><trkpt lat="45.7700378" lon="11.0124999"><ele>150.8</ele><time>2026-04-03T13:45:18.747Z</time></trkpt><trkpt lat="45.7699514" lon="11.0124616"><ele>151.2</ele><time>2026-04-03T13:45:19.741Z</time></trkpt><trkpt lat="45.7698665" lon="11.0124469"><ele>151.6</ele><time>2026-04-03T13:45:20.734Z</time></trkpt><trkpt lat="45.7697732" lon="11.0124777"><ele>152.0</ele><time>2026-04-03T13:45:21.734Z</time></trkpt><trkpt lat="45.7696857" lon="11.0125588"><ele>152.33333333333331</ele><time>2026-04-03T13:45:22.736Z</time></trkpt><trkpt lat="45.7696156" lon="11.0126595"><ele>152.66666666666666</ele><time>2026-04-03T13:45:23.725Z</time></trkpt><trkpt lat="45.7695561" lon="11.0127606"><ele>153.0</ele><time>2026-04-03T13:45:24.729Z</time></trkpt><trkpt lat="45.7694915" lon="11.0128418"><ele>153.33333333333334</ele><time>2026-04-03T13:45:25.729Z</time></trkpt><trkpt lat="45.7694173" lon="11.0128726"><ele>153.66666666666669</ele><time>2026-04-03T13:45:26.742Z</time></trkpt><trkpt lat="45.7693325" lon="11.0128852"><ele>154.0</ele><time>2026-04-03T13:45:27.738Z</time></trkpt><trkpt lat="45.7692563" lon="11.0128711"><ele>154.0</ele><time>2026-04-03T13:45:28.726Z</time></trkpt><trkpt lat="45.7691801" lon="11.0128344"><ele>154.0</ele><time>2026-04-03T13:45:29.741Z</time></trkpt><trkpt lat="45.7690956" lon="11.0127646"><ele>154.0</ele><time>2026-04-03T13:45:30.729Z</time></trkpt><trkpt lat="45.7689986" lon="11.0126935"><ele>154.0</ele><time>2026-04-03T13:45:31.724Z</time></trkpt><trkpt lat="45.7689062" lon="11.0126289"><ele>154.0</ele><time>2026-04-03T13:45:32.739Z</time></trkpt><trkpt lat="45.7688117" lon="11.0125714"><ele>154.0</ele><time>2026-04-03T13:45:33.736Z</time></trkpt><trkpt lat="45.7687358" lon="11.0125092"><ele>154.0</ele><time>2026-04-03T13:45:34.731Z</time></trkpt><trkpt lat="45.7686824" lon="11.0124254"><ele>154.0</ele><time>2026-04-03T13:45:35.742Z</time></trkpt><trkpt lat="45.7686395" lon="11.0123127"><ele>154.0</ele><time>2026-04-03T13:45:36.739Z</time></trkpt><trkpt lat="45.7685755" lon="11.0121941"><ele>154.0</ele><time>2026-04-03T13:45:37.748Z</time></trkpt><trkpt lat="45.7684834" lon="11.0120972"><ele>154.0</ele><time>2026-04-03T13:45:38.736Z</time></trkpt><trkpt lat="45.7683499" lon="11.0120242"><ele>154.0</ele><time>2026-04-03T13:45:39.734Z</time></trkpt><trkpt lat="45.7682196" lon="11.0119628"><ele>154.0</ele><time>2026-04-03T13:45:40.741Z</time></trkpt><trkpt lat="45.768078" lon="11.0119182"><ele>154.0</ele><time>2026-04-03T13:45:41.733Z</time></trkpt><trkpt lat="45.767928" lon="11.0119005"><ele>154.0</ele><time>2026-04-03T13:45:42.741Z</time></trkpt><trkpt lat="45.7677779" lon="11.0119002"><ele>154.0</ele><time>2026-04-03T13:45:43.743Z</time></trkpt><trkpt lat="45.7676362" lon="11.0119135"><ele>154.0</ele><time>2026-04-03T13:45:44.74Z</time></trkpt><trkpt lat="45.7675139" lon="11.0119229"><ele>154.0</ele><time>2026-04-03T13:45:45.727Z</time></trkpt><trkpt lat="45.767404" lon="11.0119231"><ele>154.75</ele><time>2026-04-03T13:45:46.729Z</time></trkpt><trkpt lat="45.7672931" lon="11.0119011"><ele>155.5</ele><time>2026-04-03T13:45:47.742Z</time></trkpt><trkpt lat="45.7671778" lon="11.0118546"><ele>156.25</ele><time>2026-04-03T13:45:48.739Z</time></trkpt><trkpt lat="45.7670667" lon="11.0117934"><ele>157.0</ele><time>2026-04-03T13:45:49.725Z</time></trkpt><trkpt lat="45.7669582" lon="11.0117334"><ele>157.75</ele><time>2026-04-03T13:45:50.725Z</time></trkpt><trkpt lat="45.7668463" lon="11.0116732"><ele>158.5</ele><time>2026-04-03T13:45:51.736Z</time></trkpt><trkpt lat="45.7667345" lon="11.0116136"><ele>159.25</ele><time>2026-04-03T13:45:52.734Z</time></trkpt><trkpt lat="45.7666228" lon="11.0115566"><ele>160.0</ele><time>2026-04-03T13:45:53.734Z</time></trkpt><trkpt lat="45.7665086" lon="11.0114963"><ele>160.0</ele><time>2026-04-03T13:45:54.725Z</time></trkpt><trkpt lat="45.7663991" lon="11.0114282"><ele>160.0</ele><time>2026-04-03T13:45:55.737Z</time></trkpt><trkpt lat="45.7662922" lon="11.0113527"><ele>160.0</ele><time>2026-04-03T13:45:56.737Z</time></trkpt><trkpt lat="45.7661821" lon="11.0112787"><ele>160.0</ele><time>2026-04-03T13:45:57.737Z</time></trkpt><trkpt lat="45.7660807" lon="11.0112134"><ele>161.0</ele><time>2026-04-03T13:45:58.734Z</time></trkpt><trkpt lat="45.7659834" lon="11.0111507"><ele>162.0</ele><time>2026-04-03T13:45:59.744Z</time></trkpt><trkpt lat="45.7658779" lon="11.0110775"><ele>163.0</ele><time>2026-04-03T13:46:00.736Z</time></trkpt><trkpt lat="45.7657658" lon="11.0109945"><ele>164.0</ele><time>2026-04-03T13:46:01.737Z</time></trkpt><trkpt lat="45.7656547" lon="11.0109165"><ele>164.0</ele><time>2026-04-03T13:46:02.729Z</time></trkpt><trkpt lat="45.7655527" lon="11.0108489"><ele>164.0</ele><time>2026-04-03T13:46:03.735Z</time></trkpt><trkpt lat="45.7654551" lon="11.0107791"><ele>164.0</ele><time>2026-04-03T13:46:04.735Z</time></trkpt><trkpt lat="45.7653655" lon="11.0107084"><ele>164.0</ele><time>2026-04-03T13:46:05.732Z</time></trkpt><trkpt lat="45.7652844" lon="11.0106398"><ele>164.0</ele><time>2026-04-03T13:46:06.744Z</time></trkpt><trkpt lat="45.7652169" lon="11.0105834"><ele>164.2</ele><time>2026-04-03T13:46:07.736Z</time></trkpt><trkpt lat="45.7651627" lon="11.010532"><ele>164.39999999999998</ele><time>2026-04-03T13:46:08.73Z</time></trkpt><trkpt lat="45.7650689" lon="11.0104465"><ele>164.6</ele><time>2026-04-03T13:46:10.734Z</time></trkpt><trkpt lat="45.7649525" lon="11.0103445"><ele>164.8</ele><time>2026-04-03T13:46:12.744Z</time></trkpt><trkpt lat="45.7648766" lon="11.0102698"><ele>165.0</ele><time>2026-04-03T13:46:13.727Z</time></trkpt><trkpt lat="45.7647818" lon="11.0101814"><ele>165.0</ele><time>2026-04-03T13:46:14.747Z</time></trkpt><trkpt lat="45.7646787" lon="11.0100862"><ele>165.0</ele><time>2026-04-03T13:46:15.728Z</time></trkpt><trkpt lat="45.764586" lon="11.0099915"><ele>165.0</ele><time>2026-04-03T13:46:16.73Z</time></trkpt><trkpt lat="45.7645076" lon="11.0098972"><ele>165.0</ele><time>2026-04-03T13:46:17.738Z</time></trkpt><trkpt lat="45.76445" lon="11.0098035"><ele>165.0</ele><time>2026-04-03T13:46:18.737Z</time></trkpt><trkpt lat="45.764411" lon="11.0097124"><ele>165.0</ele><time>2026-04-03T13:46:19.738Z</time></trkpt><trkpt lat="45.7643859" lon="11.0096255"><ele>165.0</ele><time>2026-04-03T13:46:20.734Z</time></trkpt><trkpt lat="45.7643584" lon="11.0094938"><ele>165.0</ele><time>2026-04-03T13:46:22.737Z</time></trkpt><trkpt lat="45.7643142" lon="11.0093627"><ele>165.0</ele><time>2026-04-03T13:46:25.737Z</time></trkpt><trkpt lat="45.7642274" lon="11.0092368"><ele>165.0</ele><time>2026-04-03T13:46:27.749Z</time></trkpt><trkpt lat="45.7641572" lon="11.009164"><ele>166.0</ele><time>2026-04-03T13:46:28.736Z</time></trkpt><trkpt lat="45.7640864" lon="11.0090842"><ele>167.0</ele><time>2026-04-03T13:46:29.756Z</time></trkpt><trkpt lat="45.7640064" lon="11.0089848"><ele>168.0</ele><time>2026-04-03T13:46:30.747Z</time></trkpt><trkpt lat="45.7639161" lon="11.0088793"><ele>169.0</ele><time>2026-04-03T13:46:31.744Z</time></trkpt><trkpt lat="45.7638216" lon="11.0087708"><ele>170.0</ele><time>2026-04-03T13:46:32.731Z</time></trkpt><trkpt lat="45.7637086" lon="11.008653"><ele>170.0</ele><time>2026-04-03T13:46:33.737Z</time></trkpt><trkpt lat="45.7635964" lon="11.0085301"><ele>170.0</ele><time>2026-04-03T13:46:34.738Z</time></trkpt><trkpt lat="45.7634812" lon="11.0083988"><ele>170.0</ele><time>2026-04-03T13:46:35.745Z</time></trkpt><trkpt lat="45.7633654" lon="11.0082663"><ele>170.0</ele><time>2026-04-03T13:46:36.725Z</time></trkpt><trkpt lat="45.7632479" lon="11.0081349"><ele>171.25</ele><time>2026-04-03T13:46:37.745Z</time></trkpt><trkpt lat="45.7631386" lon="11.0080122"><ele>172.5</ele><time>2026-04-03T13:46:38.736Z</time></trkpt><trkpt lat="45.7630371" lon="11.0078994"><ele>173.75</ele><time>2026-04-03T13:46:39.735Z</time></trkpt><trkpt lat="45.7629334" lon="11.0077829"><ele>175.0</ele><time>2026-04-03T13:46:40.732Z</time></trkpt><trkpt lat="45.7628273" lon="11.0076665"><ele>175.0</ele><time>2026-04-03T13:46:41.733Z</time></trkpt><trkpt lat="45.7627202" lon="11.0075501"><ele>175.0</ele><time>2026-04-03T13:46:42.72Z</time></trkpt><trkpt lat="45.762611" lon="11.00743"><ele>175.0</ele><time>2026-04-03T13:46:43.726Z</time></trkpt><trkpt lat="45.7625023" lon="11.007308"><ele>175.0</ele><time>2026-04-03T13:46:44.746Z</time></trkpt><trkpt lat="45.7623905" lon="11.0071826"><ele>175.5</ele><time>2026-04-03T13:46:45.723Z</time></trkpt><trkpt lat="45.7622796" lon="11.0070582"><ele>176.0</ele><time>2026-04-03T13:46:46.731Z</time></trkpt><trkpt lat="45.7621664" lon="11.0069357"><ele>176.5</ele><time>2026-04-03T13:46:47.745Z</time></trkpt><trkpt lat="45.7620526" lon="11.0068117"><ele>177.0</ele><time>2026-04-03T13:46:48.731Z</time></trkpt><trkpt lat="45.7619455" lon="11.0066925"><ele>177.6</ele><time>2026-04-03T13:46:49.736Z</time></trkpt><trkpt lat="45.7618449" lon="11.0065879"><ele>178.2</ele><time>2026-04-03T13:46:50.733Z</time></trkpt><trkpt lat="45.7617561" lon="11.0064921"><ele>178.8</ele><time>2026-04-03T13:46:51.734Z</time></trkpt><trkpt lat="45.761679" lon="11.006399"><ele>179.4</ele><time>2026-04-03T13:46:52.727Z</time></trkpt><trkpt lat="45.7616121" lon="11.0063175"><ele>180.0</ele><time>2026-04-03T13:46:53.748Z</time></trkpt><trkpt lat="45.7615598" lon="11.0062491"><ele>180.0</ele><time>2026-04-03T13:46:54.725Z</time></trkpt><trkpt lat="45.7614928" lon="11.0061273"><ele>180.0</ele><time>2026-04-03T13:46:56.74Z</time></trkpt><trkpt lat="45.761466" lon="11.0059965"><ele>180.0</ele><time>2026-04-03T13:46:58.736Z</time></trkpt><trkpt lat="45.7613926" lon="11.005902"><ele>180.0</ele><time>2026-04-03T13:47:00.734Z</time></trkpt><trkpt lat="45.761331" lon="11.0058794"><ele>180.0</ele><time>2026-04-03T13:47:01.722Z</time></trkpt><trkpt lat="45.7612598" lon="11.0058606"><ele>180.0</ele><time>2026-04-03T13:47:02.736Z</time></trkpt><trkpt lat="45.7611831" lon="11.0058177"><ele>179.2</ele><time>2026-04-03T13:47:03.741Z</time></trkpt><trkpt lat="45.7611038" lon="11.0057668"><ele>178.4</ele><time>2026-04-03T13:47:04.759Z</time></trkpt><trkpt lat="45.7610043" lon="11.0057099"><ele>177.60000000000002</ele><time>2026-04-03T13:47:05.74Z</time></trkpt><trkpt lat="45.7609008" lon="11.005649"><ele>176.8</ele><time>2026-04-03T13:47:06.731Z</time></trkpt><trkpt lat="45.7608038" lon="11.0056088"><ele>176.0</ele><time>2026-04-03T13:47:07.723Z</time></trkpt><trkpt lat="45.7607167" lon="11.0055758"><ele>176.0</ele><time>2026-04-03T13:47:08.739Z</time></trkpt><trkpt lat="45.7606246" lon="11.0055452"><ele>176.0</ele><time>2026-04-03T13:47:09.74Z</time></trkpt><trkpt lat="45.7605317" lon="11.0055257"><ele>176.0</ele><time>2026-04-03T13:47:10.737Z</time></trkpt><trkpt lat="45.7604379" lon="11.0055215"><ele>176.0</ele><time>2026-04-03T13:47:11.738Z</time></trkpt><trkpt lat="45.7603489" lon="11.0055335"><ele>176.0</ele><time>2026-04-03T13:47:12.746Z</time></trkpt><trkpt lat="45.7602617" lon="11.0055478"><ele>175.8</ele><time>2026-04-03T13:47:13.73Z</time></trkpt><trkpt lat="45.760191" lon="11.0055843"><ele>175.60000000000002</ele><time>2026-04-03T13:47:14.746Z</time></trkpt><trkpt lat="45.7601258" lon="11.0056592"><ele>175.4</ele><time>2026-04-03T13:47:15.752Z</time></trkpt><trkpt lat="45.7600512" lon="11.0057873"><ele>175.2</ele><time>2026-04-03T13:47:16.736Z</time></trkpt><trkpt lat="45.7599783" lon="11.0059303"><ele>175.0</ele><time>2026-04-03T13:47:17.746Z</time></trkpt><trkpt lat="45.7598969" lon="11.0060693"><ele>175.0</ele><time>2026-04-03T13:47:18.731Z</time></trkpt><trkpt lat="45.7598083" lon="11.006188"><ele>175.0</ele><time>2026-04-03T13:47:19.741Z</time></trkpt><trkpt lat="45.7597236" lon="11.0062833"><ele>175.0</ele><time>2026-04-03T13:47:20.746Z</time></trkpt><trkpt lat="45.7596381" lon="11.0063703"><ele>175.0</ele><time>2026-04-03T13:47:21.75Z</time></trkpt><trkpt lat="45.7595499" lon="11.0064417"><ele>175.0</ele><time>2026-04-03T13:47:22.728Z</time></trkpt><trkpt lat="45.7594568" lon="11.0064952"><ele>173.66666666666669</ele><time>2026-04-03T13:47:23.741Z</time></trkpt><trkpt lat="45.7593568" lon="11.0065408"><ele>172.33333333333334</ele><time>2026-04-03T13:47:24.744Z</time></trkpt><trkpt lat="45.7592648" lon="11.0065573"><ele>171.0</ele><time>2026-04-03T13:47:25.728Z</time></trkpt><trkpt lat="45.7591839" lon="11.0065581"><ele>169.66666666666666</ele><time>2026-04-03T13:47:26.725Z</time></trkpt><trkpt lat="45.7591059" lon="11.0065477"><ele>168.33333333333331</ele><time>2026-04-03T13:47:27.723Z</time></trkpt><trkpt lat="45.7590392" lon="11.0065359"><ele>167.0</ele><time>2026-04-03T13:47:28.73Z</time></trkpt><trkpt lat="45.7589763" lon="11.0065419"><ele>167.0</ele><time>2026-04-03T13:47:29.738Z</time></trkpt><trkpt lat="45.7589142" lon="11.0065627"><ele>167.0</ele><time>2026-04-03T13:47:30.736Z</time></trkpt><trkpt lat="45.7588175" lon="11.0066398"><ele>167.0</ele><time>2026-04-03T13:47:32.748Z</time></trkpt><trkpt lat="45.7588035" lon="11.0068386"><ele>167.0</ele><time>2026-04-03T13:47:34.741Z</time></trkpt><trkpt lat="45.7588235" lon="11.006973"><ele>167.0</ele><time>2026-04-03T13:47:35.731Z</time></trkpt><trkpt lat="45.7588432" lon="11.0071204"><ele>168.25</ele><time>2026-04-03T13:47:36.742Z</time></trkpt><trkpt lat="45.7588393" lon="11.007295"><ele>169.5</ele><time>2026-04-03T13:47:37.727Z</time></trkpt><trkpt lat="45.7588354" lon="11.0074934"><ele>170.75</ele><time>2026-04-03T13:47:38.745Z</time></trkpt><trkpt lat="45.7588347" lon="11.0076815"><ele>172.0</ele><time>2026-04-03T13:47:39.739Z</time></trkpt><trkpt lat="45.7588405" lon="11.0078362"><ele>173.2</ele><time>2026-04-03T13:47:40.725Z</time></trkpt><trkpt lat="45.7588375" lon="11.0079726"><ele>174.39999999999998</ele><time>2026-04-03T13:47:41.743Z</time></trkpt><trkpt lat="45.7588293" lon="11.0081203"><ele>175.60000000000002</ele><time>2026-04-03T13:47:42.733Z</time></trkpt><trkpt lat="45.7587942" lon="11.0082683"><ele>176.8</ele><time>2026-04-03T13:47:43.725Z</time></trkpt><trkpt lat="45.7587341" lon="11.008415"><ele>178.0</ele><time>2026-04-03T13:47:44.743Z</time></trkpt><trkpt lat="45.7586575" lon="11.0085608"><ele>177.0</ele><time>2026-04-03T13:47:45.744Z</time></trkpt><trkpt lat="45.7585759" lon="11.0087128"><ele>176.0</ele><time>2026-04-03T13:47:46.733Z</time></trkpt><trkpt lat="45.7584888" lon="11.0088556"><ele>175.0</ele><time>2026-04-03T13:47:47.737Z</time></trkpt><trkpt lat="45.7583905" lon="11.0089926"><ele>174.0</ele><time>2026-04-03T13:47:48.736Z</time></trkpt><trkpt lat="45.7583105" lon="11.0091241"><ele>175.2</ele><time>2026-04-03T13:47:49.737Z</time></trkpt><trkpt lat="45.7582475" lon="11.0092365"><ele>176.39999999999998</ele><time>2026-04-03T13:47:50.752Z</time></trkpt><trkpt lat="45.7581873" lon="11.0093481"><ele>177.6</ele><time>2026-04-03T13:47:51.742Z</time></trkpt><trkpt lat="45.7581332" lon="11.0094571"><ele>178.8</ele><time>2026-04-03T13:47:52.749Z</time></trkpt><trkpt lat="45.7580982" lon="11.0095938"><ele>180.0</ele><time>2026-04-03T13:47:53.752Z</time></trkpt><trkpt lat="45.7580958" lon="11.0097735"><ele>180.0</ele><time>2026-04-03T13:47:54.737Z</time></trkpt><trkpt lat="45.7580934" lon="11.0099592"><ele>180.0</ele><time>2026-04-03T13:47:55.734Z</time></trkpt><trkpt lat="45.7580748" lon="11.0101404"><ele>180.0</ele><time>2026-04-03T13:47:56.743Z</time></trkpt><trkpt lat="45.7580292" lon="11.010314"><ele>180.0</ele><time>2026-04-03T13:47:57.737Z</time></trkpt><trkpt lat="45.7579754" lon="11.0104852"><ele>182.2</ele><time>2026-04-03T13:47:58.746Z</time></trkpt><trkpt lat="45.7579172" lon="11.0106574"><ele>184.4</ele><time>2026-04-03T13:47:59.739Z</time></trkpt><trkpt lat="45.7578602" lon="11.0108046"><ele>186.60000000000002</ele><time>2026-04-03T13:48:00.73Z</time></trkpt><trkpt lat="45.7578186" lon="11.0109285"><ele>188.8</ele><time>2026-04-03T13:48:01.741Z</time></trkpt><trkpt lat="45.7577886" lon="11.0110408"><ele>191.0</ele><time>2026-04-03T13:48:02.727Z</time></trkpt><trkpt lat="45.7577774" lon="11.0111587"><ele>193.0</ele><time>2026-04-03T13:48:03.745Z</time></trkpt><trkpt lat="45.7577691" lon="11.0112878"><ele>195.0</ele><time>2026-04-03T13:48:04.748Z</time></trkpt><trkpt lat="45.7577657" lon="11.0114298"><ele>197.0</ele><time>2026-04-03T13:48:05.744Z</time></trkpt><trkpt lat="45.7577641" lon="11.0115793"><ele>199.0</ele><time>2026-04-03T13:48:06.756Z</time></trkpt><trkpt lat="45.7577627" lon="11.0117316"><ele>201.0</ele><time>2026-04-03T13:48:07.745Z</time></trkpt><trkpt lat="45.7577592" lon="11.0118805"><ele>202.4</ele><time>2026-04-03T13:48:08.746Z</time></trkpt><trkpt lat="45.7577528" lon="11.0120247"><ele>203.8</ele><time>2026-04-03T13:48:09.741Z</time></trkpt><trkpt lat="45.7577432" lon="11.012159"><ele>205.20000000000002</ele><time>2026-04-03T13:48:10.742Z</time></trkpt><trkpt lat="45.7577255" lon="11.0122911"><ele>206.60000000000002</ele><time>2026-04-03T13:48:11.737Z</time></trkpt><trkpt lat="45.7576981" lon="11.0124228"><ele>208.0</ele><time>2026-04-03T13:48:12.727Z</time></trkpt><trkpt lat="45.7576558" lon="11.01256"><ele>208.0</ele><time>2026-04-03T13:48:13.724Z</time></trkpt><trkpt lat="45.757608" lon="11.0126895"><ele>208.0</ele><time>2026-04-03T13:48:14.732Z</time></trkpt><trkpt lat="45.757553" lon="11.0128146"><ele>208.0</ele><time>2026-04-03T13:48:15.74Z</time></trkpt><trkpt lat="45.7574761" lon="11.0129163"><ele>208.0</ele><time>2026-04-03T13:48:16.741Z</time></trkpt><trkpt lat="45.7573958" lon="11.0130125"><ele>208.0</ele><time>2026-04-03T13:48:17.732Z</time></trkpt><trkpt lat="45.7573165" lon="11.0131178"><ele>208.0</ele><time>2026-04-03T13:48:18.742Z</time></trkpt><trkpt lat="45.757243" lon="11.0132096"><ele>208.0</ele><time>2026-04-03T13:48:19.73Z</time></trkpt><trkpt lat="45.7571789" lon="11.013291"><ele>208.0</ele><time>2026-04-03T13:48:20.739Z</time></trkpt><trkpt lat="45.7571328" lon="11.0133833"><ele>208.0</ele><time>2026-04-03T13:48:21.731Z</time></trkpt><trkpt lat="45.7570878" lon="11.0134938"><ele>208.0</ele><time>2026-04-03T13:48:22.724Z</time></trkpt><trkpt lat="45.7570434" lon="11.0136189"><ele>207.75</ele><time>2026-04-03T13:48:23.744Z</time></trkpt><trkpt lat="45.7569862" lon="11.0137587"><ele>207.5</ele><time>2026-04-03T13:48:24.748Z</time></trkpt><trkpt lat="45.7569103" lon="11.013908"><ele>207.25</ele><time>2026-04-03T13:48:25.743Z</time></trkpt><trkpt lat="45.7568338" lon="11.0140697"><ele>207.0</ele><time>2026-04-03T13:48:26.744Z</time></trkpt><trkpt lat="45.7567721" lon="11.0142322"><ele>207.0</ele><time>2026-04-03T13:48:27.743Z</time></trkpt><trkpt lat="45.756733" lon="11.0144102"><ele>207.0</ele><time>2026-04-03T13:48:28.747Z</time></trkpt><trkpt lat="45.7567113" lon="11.0146322"><ele>207.0</ele><time>2026-04-03T13:48:29.748Z</time></trkpt><trkpt lat="45.7566888" lon="11.0148905"><ele>210.0</ele><time>2026-04-03T13:48:30.74Z</time></trkpt><trkpt lat="45.7566686" lon="11.015124"><ele>213.0</ele><time>2026-04-03T13:48:31.746Z</time></trkpt><trkpt lat="45.7566401" lon="11.0153142"><ele>216.0</ele><time>2026-04-03T13:48:32.733Z</time></trkpt><trkpt lat="45.7566027" lon="11.0154601"><ele>219.0</ele><time>2026-04-03T13:48:33.734Z</time></trkpt><trkpt lat="45.7565536" lon="11.0155968"><ele>219.0</ele><time>2026-04-03T13:48:34.736Z</time></trkpt><trkpt lat="45.7565041" lon="11.01574"><ele>219.0</ele><time>2026-04-03T13:48:35.737Z</time></trkpt><trkpt lat="45.7564537" lon="11.0158841"><ele>219.0</ele><time>2026-04-03T13:48:36.749Z</time></trkpt><trkpt lat="45.7564041" lon="11.0160249"><ele>219.0</ele><time>2026-04-03T13:48:37.742Z</time></trkpt><trkpt lat="45.756356" lon="11.0161816"><ele>223.0</ele><time>2026-04-03T13:48:38.738Z</time></trkpt><trkpt lat="45.7563077" lon="11.0163574"><ele>227.0</ele><time>2026-04-03T13:48:39.737Z</time></trkpt><trkpt lat="45.7562666" lon="11.0165584"><ele>231.0</ele><time>2026-04-03T13:48:40.733Z</time></trkpt><trkpt lat="45.7562277" lon="11.0167763"><ele>235.0</ele><time>2026-04-03T13:48:41.733Z</time></trkpt><trkpt lat="45.7561863" lon="11.0170144"><ele>237.0</ele><time>2026-04-03T13:48:42.735Z</time></trkpt><trkpt lat="45.7561354" lon="11.0172749"><ele>239.0</ele><time>2026-04-03T13:48:43.736Z</time></trkpt><trkpt lat="45.7560726" lon="11.0175438"><ele>241.0</ele><time>2026-04-03T13:48:44.752Z</time></trkpt><trkpt lat="45.7559899" lon="11.0178024"><ele>241.0</ele><time>2026-04-03T13:48:45.737Z</time></trkpt><trkpt lat="45.7559032" lon="11.0180586"><ele>241.0</ele><time>2026-04-03T13:48:46.738Z</time></trkpt><trkpt lat="45.7558299" lon="11.018309"><ele>241.0</ele><time>2026-04-03T13:48:47.734Z</time></trkpt><trkpt lat="45.7557756" lon="11.0185397"><ele>245.0</ele><time>2026-04-03T13:48:48.737Z</time></trkpt><trkpt lat="45.7557112" lon="11.0187567"><ele>249.0</ele><time>2026-04-03T13:48:49.743Z</time></trkpt><trkpt lat="45.7556244" lon="11.0189751"><ele>253.0</ele><time>2026-04-03T13:48:50.741Z</time></trkpt><trkpt lat="45.7555466" lon="11.0191717"><ele>250.0</ele><time>2026-04-03T13:48:51.748Z</time></trkpt><trkpt lat="45.7554671" lon="11.0193287"><ele>247.0</ele><time>2026-04-03T13:48:52.733Z</time></trkpt><trkpt lat="45.7553789" lon="11.019466"><ele>244.0</ele><time>2026-04-03T13:48:53.743Z</time></trkpt><trkpt lat="45.7552835" lon="11.0195893"><ele>241.0</ele><time>2026-04-03T13:48:54.726Z</time></trkpt><trkpt lat="45.7551912" lon="11.0197253"><ele>241.0</ele><time>2026-04-03T13:48:55.743Z</time></trkpt><trkpt lat="45.7551125" lon="11.0198945"><ele>241.0</ele><time>2026-04-03T13:48:56.731Z</time></trkpt><trkpt lat="45.7550408" lon="11.0200888"><ele>241.0</ele><time>2026-04-03T13:48:57.734Z</time></trkpt><trkpt lat="45.7549865" lon="11.0202814"><ele>241.0</ele><time>2026-04-03T13:48:58.736Z</time></trkpt><trkpt lat="45.7549487" lon="11.0204502"><ele>247.0</ele><time>2026-04-03T13:48:59.728Z</time></trkpt><trkpt lat="45.7549243" lon="11.0206236"><ele>253.0</ele><time>2026-04-03T13:49:00.727Z</time></trkpt><trkpt lat="45.7549119" lon="11.0208237"><ele>259.0</ele><time>2026-04-03T13:49:01.752Z</time></trkpt><trkpt lat="45.7549076" lon="11.0210507"><ele>265.0</ele><time>2026-04-03T13:49:02.732Z</time></trkpt><trkpt lat="45.7548887" lon="11.0213054"><ele>270.66666666666663</ele><time>2026-04-03T13:49:03.752Z</time></trkpt><trkpt lat="45.7548509" lon="11.0215784"><ele>276.3333333333333</ele><time>2026-04-03T13:49:04.73Z</time></trkpt><trkpt lat="45.7548013" lon="11.0218787"><ele>282.0</ele><time>2026-04-03T13:49:05.729Z</time></trkpt><trkpt lat="45.7547406" lon="11.0221662"><ele>288.0</ele><time>2026-04-03T13:49:06.736Z</time></trkpt><trkpt lat="45.7546792" lon="11.0224113"><ele>294.0</ele><time>2026-04-03T13:49:07.728Z</time></trkpt><trkpt lat="45.7546209" lon="11.0226459"><ele>300.0</ele><time>2026-04-03T13:49:08.736Z</time></trkpt><trkpt lat="45.7545729" lon="11.022865"><ele>303.0</ele><time>2026-04-03T13:49:09.743Z</time></trkpt><trkpt lat="45.7545417" lon="11.0230438"><ele>306.0</ele><time>2026-04-03T13:49:10.734Z</time></trkpt><trkpt lat="45.7545206" lon="11.0231917"><ele>309.0</ele><time>2026-04-03T13:49:11.759Z</time></trkpt><trkpt lat="45.754502" lon="11.0233206"><ele>312.0</ele><time>2026-04-03T13:49:12.729Z</time></trkpt><trkpt lat="45.7544907" lon="11.0234241"><ele>315.0</ele><time>2026-04-03T13:49:13.731Z</time></trkpt><trkpt lat="45.7544881" lon="11.0235668"><ele>315.4</ele><time>2026-04-03T13:49:15.734Z</time></trkpt><trkpt lat="45.7544942" lon="11.0236576"><ele>315.8</ele><time>2026-04-03T13:49:16.759Z</time></trkpt><trkpt lat="45.7545205" lon="11.0237778"><ele>316.2</ele><time>2026-04-03T13:49:17.717Z</time></trkpt><trkpt lat="45.7545628" lon="11.0239092"><ele>316.6</ele><time>2026-04-03T13:49:18.733Z</time></trkpt><trkpt lat="45.7546153" lon="11.0240515"><ele>317.0</ele><time>2026-04-03T13:49:19.743Z</time></trkpt><trkpt lat="45.7546714" lon="11.024194"><ele>317.5</ele><time>2026-04-03T13:49:20.725Z</time></trkpt><trkpt lat="45.7547223" lon="11.0243336"><ele>318.0</ele><time>2026-04-03T13:49:21.737Z</time></trkpt><trkpt lat="45.754759" lon="11.0244714"><ele>318.5</ele><time>2026-04-03T13:49:22.729Z</time></trkpt><trkpt lat="45.7547785" lon="11.0246326"><ele>319.0</ele><time>2026-04-03T13:49:23.726Z</time></trkpt><trkpt lat="45.754784" lon="11.0248305"><ele>321.0</ele><time>2026-04-03T13:49:24.719Z</time></trkpt><trkpt lat="45.7547805" lon="11.0250565"><ele>323.0</ele><time>2026-04-03T13:49:25.724Z</time></trkpt><trkpt lat="45.7547766" lon="11.0252901"><ele>325.0</ele><time>2026-04-03T13:49:26.752Z</time></trkpt><trkpt lat="45.7547684" lon="11.0255022"><ele>325.0</ele><time>2026-04-03T13:49:27.739Z</time></trkpt><trkpt lat="45.7547521" lon="11.0256888"><ele>325.0</ele><time>2026-04-03T13:49:28.736Z</time></trkpt><trkpt lat="45.7547087" lon="11.0258743"><ele>325.0</ele><time>2026-04-03T13:49:29.732Z</time></trkpt><trkpt lat="45.7546373" lon="11.0260794"><ele>325.0</ele><time>2026-04-03T13:49:30.74Z</time></trkpt><trkpt lat="45.7545708" lon="11.0262863"><ele>327.0</ele><time>2026-04-03T13:49:31.736Z</time></trkpt><trkpt lat="45.7545098" lon="11.0264545"><ele>329.0</ele><time>2026-04-03T13:49:32.735Z</time></trkpt><trkpt lat="45.7544767" lon="11.0265698"><ele>331.0</ele><time>2026-04-03T13:49:33.749Z</time></trkpt><trkpt lat="45.7544507" lon="11.0266525"><ele>333.0</ele><time>2026-04-03T13:49:34.734Z</time></trkpt><trkpt lat="45.7544453" lon="11.0267566"><ele>335.0</ele><time>2026-04-03T13:49:36.734Z</time></trkpt><trkpt lat="45.7545299" lon="11.0267586"><ele>337.0</ele><time>2026-04-03T13:49:38.734Z</time></trkpt><trkpt lat="45.7545684" lon="11.026677"><ele>337.0</ele><time>2026-04-03T13:49:39.736Z</time></trkpt><trkpt lat="45.7546072" lon="11.0265861"><ele>337.0</ele><time>2026-04-03T13:49:40.74Z</time></trkpt><trkpt lat="45.7546603" lon="11.0264978"><ele>337.0</ele><time>2026-04-03T13:49:41.745Z</time></trkpt><trkpt lat="45.7547365" lon="11.0263852"><ele>337.0</ele><time>2026-04-03T13:49:42.762Z</time></trkpt><trkpt lat="45.7548332" lon="11.0262504"><ele>337.0</ele><time>2026-04-03T13:49:43.734Z</time></trkpt><trkpt lat="45.7549427" lon="11.0260945"><ele>337.0</ele><time>2026-04-03T13:49:44.748Z</time></trkpt><trkpt lat="45.7550451" lon="11.0259408"><ele>337.0</ele><time>2026-04-03T13:49:45.736Z</time></trkpt><trkpt lat="45.7551394" lon="11.025809"><ele>337.0</ele><time>2026-04-03T13:49:46.727Z</time></trkpt><trkpt lat="45.7552273" lon="11.0256866"><ele>337.0</ele><time>2026-04-03T13:49:47.724Z</time></trkpt><trkpt lat="45.7553195" lon="11.025557"><ele>343.0</ele><time>2026-04-03T13:49:48.726Z</time></trkpt><trkpt lat="45.7553988" lon="11.0253984"><ele>349.0</ele><time>2026-04-03T13:49:49.734Z</time></trkpt><trkpt lat="45.7554676" lon="11.0252163"><ele>355.0</ele><time>2026-04-03T13:49:50.727Z</time></trkpt><trkpt lat="45.755523" lon="11.0250065"><ele>361.0</ele><time>2026-04-03T13:49:51.725Z</time></trkpt><trkpt lat="45.755579" lon="11.0247821"><ele>361.0</ele><time>2026-04-03T13:49:52.731Z</time></trkpt><trkpt lat="45.7556531" lon="11.0245601"><ele>361.0</ele><time>2026-04-03T13:49:53.727Z</time></trkpt><trkpt lat="45.7557332" lon="11.0243458"><ele>361.0</ele><time>2026-04-03T13:49:54.735Z</time></trkpt><trkpt lat="45.7557786" lon="11.0241316"><ele>360.20000000000005</ele><time>2026-04-03T13:49:55.732Z</time></trkpt><trkpt lat="45.7558093" lon="11.0239753"><ele>359.40000000000003</ele><time>2026-04-03T13:49:56.745Z</time></trkpt><trkpt lat="45.7558274" lon="11.0238579"><ele>358.6</ele><time>2026-04-03T13:49:57.731Z</time></trkpt><trkpt lat="45.755859" lon="11.0237564"><ele>357.8</ele><time>2026-04-03T13:49:58.749Z</time></trkpt><trkpt lat="45.7559179" lon="11.023668"><ele>357.0</ele><time>2026-04-03T13:49:59.733Z</time></trkpt><trkpt lat="45.7559962" lon="11.0236007"><ele>365.8</ele><time>2026-04-03T13:50:00.733Z</time></trkpt><trkpt lat="45.7560749" lon="11.0235247"><ele>374.6</ele><time>2026-04-03T13:50:01.732Z</time></trkpt><trkpt lat="45.7561343" lon="11.023416"><ele>383.40000000000003</ele><time>2026-04-03T13:50:02.73Z</time></trkpt><trkpt lat="45.756176" lon="11.0232788"><ele>392.20000000000005</ele><time>2026-04-03T13:50:03.743Z</time></trkpt><trkpt lat="45.7562014" lon="11.0231263"><ele>401.0</ele><time>2026-04-03T13:50:04.741Z</time></trkpt><trkpt lat="45.7562379" lon="11.0229645"><ele>401.0</ele><time>2026-04-03T13:50:05.738Z</time></trkpt><trkpt lat="45.7563105" lon="11.0228116"><ele>401.0</ele><time>2026-04-03T13:50:06.723Z</time></trkpt><trkpt lat="45.7563823" lon="11.0226846"><ele>401.0</ele><time>2026-04-03T13:50:07.745Z</time></trkpt><trkpt lat="45.7564329" lon="11.0225697"><ele>401.0</ele><time>2026-04-03T13:50:08.735Z</time></trkpt><trkpt lat="45.7564396" lon="11.0224409"><ele>401.0</ele><time>2026-04-03T13:50:09.727Z</time></trkpt><trkpt lat="45.7564253" lon="11.0222886"><ele>399.5</ele><time>2026-04-03T13:50:10.728Z</time></trkpt><trkpt lat="45.756406" lon="11.0221214"><ele>398.0</ele><time>2026-04-03T13:50:11.722Z</time></trkpt><trkpt lat="45.7564034" lon="11.0219553"><ele>396.5</ele><time>2026-04-03T13:50:12.749Z</time></trkpt><trkpt lat="45.7564163" lon="11.0217864"><ele>395.0</ele><time>2026-04-03T13:50:13.731Z</time></trkpt><trkpt lat="45.7564274" lon="11.0216457"><ele>393.4</ele><time>2026-04-03T13:50:14.728Z</time></trkpt><trkpt lat="45.7564447" lon="11.0215131"><ele>391.8</ele><time>2026-04-03T13:50:15.728Z</time></trkpt><trkpt lat="45.7564688" lon="11.0213882"><ele>390.20000000000005</ele><time>2026-04-03T13:50:16.727Z</time></trkpt><trkpt lat="45.7565093" lon="11.0212736"><ele>388.6</ele><time>2026-04-03T13:50:17.741Z</time></trkpt><trkpt lat="45.7565692" lon="11.0211807"><ele>387.0</ele><time>2026-04-03T13:50:18.74Z</time></trkpt><trkpt lat="45.7566482" lon="11.0210931"><ele>387.0</ele><time>2026-04-03T13:50:19.731Z</time></trkpt><trkpt lat="45.7567518" lon="11.0209975"><ele>387.0</ele><time>2026-04-03T13:50:20.744Z</time></trkpt><trkpt lat="45.7568772" lon="11.0208898"><ele>387.0</ele><time>2026-04-03T13:50:21.735Z</time></trkpt><trkpt lat="45.7569797" lon="11.0207849"><ele>387.0</ele><time>2026-04-03T13:50:22.733Z</time></trkpt><trkpt lat="45.7570557" lon="11.0206983"><ele>388.6</ele><time>2026-04-03T13:50:23.75Z</time></trkpt><trkpt lat="45.7571147" lon="11.0206235"><ele>390.20000000000005</ele><time>2026-04-03T13:50:24.743Z</time></trkpt><trkpt lat="45.7572013" lon="11.0205525"><ele>391.8</ele><time>2026-04-03T13:50:26.744Z</time></trkpt><trkpt lat="45.7572311" lon="11.0206872"><ele>393.4</ele><time>2026-04-03T13:50:28.729Z</time></trkpt><trkpt lat="45.7571835" lon="11.0207791"><ele>395.0</ele><time>2026-04-03T13:50:29.743Z</time></trkpt><trkpt lat="45.7571053" lon="11.0208731"><ele>399.0</ele><time>2026-04-03T13:50:30.732Z</time></trkpt><trkpt lat="45.7570309" lon="11.0209859"><ele>403.0</ele><time>2026-04-03T13:50:31.733Z</time></trkpt><trkpt lat="45.7569778" lon="11.0210939"><ele>407.0</ele><time>2026-04-03T13:50:32.743Z</time></trkpt><trkpt lat="45.7569501" lon="11.0211787"><ele>411.0</ele><time>2026-04-03T13:50:33.757Z</time></trkpt><trkpt lat="45.7569937" lon="11.0213289"><ele>415.0</ele><time>2026-04-03T13:50:35.731Z</time></trkpt><trkpt lat="45.7570756" lon="11.0213351"><ele>415.0</ele><time>2026-04-03T13:50:36.74Z</time></trkpt><trkpt lat="45.7571448" lon="11.0212515"><ele>415.0</ele><time>2026-04-03T13:50:37.739Z</time></trkpt><trkpt lat="45.7572263" lon="11.0211217"><ele>415.0</ele><time>2026-04-03T13:50:38.735Z</time></trkpt><trkpt lat="45.7573292" lon="11.020974"><ele>415.0</ele><time>2026-04-03T13:50:39.742Z</time></trkpt><trkpt lat="45.7574609" lon="11.0208"><ele>420.0</ele><time>2026-04-03T13:50:40.742Z</time></trkpt><trkpt lat="45.7575989" lon="11.0206094"><ele>425.0</ele><time>2026-04-03T13:50:41.739Z</time></trkpt><trkpt lat="45.7577361" lon="11.0204268"><ele>430.0</ele><time>2026-04-03T13:50:42.749Z</time></trkpt><trkpt lat="45.7578594" lon="11.0202722"><ele>430.0</ele><time>2026-04-03T13:50:43.756Z</time></trkpt><trkpt lat="45.757977" lon="11.0201407"><ele>430.0</ele><time>2026-04-03T13:50:44.727Z</time></trkpt><trkpt lat="45.7581097" lon="11.0200306"><ele>430.0</ele><time>2026-04-03T13:50:45.734Z</time></trkpt><trkpt lat="45.7582316" lon="11.0199267"><ele>430.0</ele><time>2026-04-03T13:50:46.746Z</time></trkpt><trkpt lat="45.758349" lon="11.0197951"><ele>426.0</ele><time>2026-04-03T13:50:47.73Z</time></trkpt><trkpt lat="45.7584675" lon="11.0196031"><ele>422.0</ele><time>2026-04-03T13:50:48.726Z</time></trkpt><trkpt lat="45.7585755" lon="11.0194034"><ele>418.0</ele><time>2026-04-03T13:50:49.745Z</time></trkpt><trkpt lat="45.758666" lon="11.0192434"><ele>422.79999999999995</ele><time>2026-04-03T13:50:50.738Z</time></trkpt><trkpt lat="45.758732" lon="11.0191128"><ele>427.6</ele><time>2026-04-03T13:50:51.746Z</time></trkpt><trkpt lat="45.7587924" lon="11.0190044"><ele>432.40000000000003</ele><time>2026-04-03T13:50:52.734Z</time></trkpt><trkpt lat="45.7588611" lon="11.018915"><ele>437.20000000000005</ele><time>2026-04-03T13:50:53.737Z</time></trkpt><trkpt lat="45.7589386" lon="11.0188178"><ele>442.0</ele><time>2026-04-03T13:50:54.738Z</time></trkpt><trkpt lat="45.7590298" lon="11.0187063"><ele>442.0</ele><time>2026-04-03T13:50:55.727Z</time></trkpt><trkpt lat="45.7591212" lon="11.0185864"><ele>442.0</ele><time>2026-04-03T13:50:56.748Z</time></trkpt><trkpt lat="45.7591977" lon="11.0184684"><ele>442.0</ele><time>2026-04-03T13:50:57.737Z</time></trkpt><trkpt lat="45.7592741" lon="11.0183594"><ele>442.0</ele><time>2026-04-03T13:50:58.74Z</time></trkpt><trkpt lat="45.7593673" lon="11.0182628"><ele>442.33333333333337</ele><time>2026-04-03T13:50:59.748Z</time></trkpt><trkpt lat="45.7594917" lon="11.0181605"><ele>442.66666666666663</ele><time>2026-04-03T13:51:00.737Z</time></trkpt><trkpt lat="45.7596346" lon="11.0180555"><ele>443.0</ele><time>2026-04-03T13:51:01.747Z</time></trkpt><trkpt lat="45.7597932" lon="11.0179499"><ele>443.0</ele><time>2026-04-03T13:51:02.743Z</time></trkpt><trkpt lat="45.7599636" lon="11.0178464"><ele>443.0</ele><time>2026-04-03T13:51:03.735Z</time></trkpt><trkpt lat="45.7601434" lon="11.0177521"><ele>443.0</ele><time>2026-04-03T13:51:04.726Z</time></trkpt><trkpt lat="45.7603273" lon="11.0176607"><ele>442.0</ele><time>2026-04-03T13:51:05.747Z</time></trkpt><trkpt lat="45.7604852" lon="11.0175772"><ele>441.0</ele><time>2026-04-03T13:51:06.748Z</time></trkpt><trkpt lat="45.7606115" lon="11.0175096"><ele>440.0</ele><time>2026-04-03T13:51:07.741Z</time></trkpt><trkpt lat="45.760734" lon="11.0174693"><ele>439.0</ele><time>2026-04-03T13:51:08.748Z</time></trkpt><trkpt lat="45.7608748" lon="11.0174495"><ele>447.6666666666667</ele><time>2026-04-03T13:51:09.737Z</time></trkpt><trkpt lat="45.761035" lon="11.0174344"><ele>456.33333333333337</ele><time>2026-04-03T13:51:10.733Z</time></trkpt><trkpt lat="45.7611986" lon="11.0174202"><ele>465.0</ele><time>2026-04-03T13:51:11.745Z</time></trkpt><trkpt lat="45.7613389" lon="11.0174064"><ele>465.0</ele><time>2026-04-03T13:51:12.744Z</time></trkpt><trkpt lat="45.7614482" lon="11.017401"><ele>465.0</ele><time>2026-04-03T13:51:13.741Z</time></trkpt><trkpt lat="45.7615426" lon="11.0173771"><ele>465.0</ele><time>2026-04-03T13:51:14.723Z</time></trkpt><trkpt lat="45.7616213" lon="11.017332"><ele>465.0</ele><time>2026-04-03T13:51:15.747Z</time></trkpt><trkpt lat="45.761688" lon="11.0172614"><ele>465.0</ele><time>2026-04-03T13:51:16.753Z</time></trkpt><trkpt lat="45.7617226" lon="11.017133"><ele>465.0</ele><time>2026-04-03T13:51:17.745Z</time></trkpt><trkpt lat="45.7617448" lon="11.0169798"><ele>465.0</ele><time>2026-04-03T13:51:18.739Z</time></trkpt><trkpt lat="45.7617715" lon="11.0168511"><ele>465.0</ele><time>2026-04-03T13:51:19.768Z</time></trkpt><trkpt lat="45.7618234" lon="11.0167678"><ele>465.0</ele><time>2026-04-03T13:51:20.757Z</time></trkpt><trkpt lat="45.7618973" lon="11.0167238"><ele>465.0</ele><time>2026-04-03T13:51:21.734Z</time></trkpt><trkpt lat="45.7619852" lon="11.0167417"><ele>465.2</ele><time>2026-04-03T13:51:22.741Z</time></trkpt><trkpt lat="45.762091" lon="11.0168084"><ele>465.4</ele><time>2026-04-03T13:51:23.738Z</time></trkpt><trkpt lat="45.7621972" lon="11.0168878"><ele>465.6</ele><time>2026-04-03T13:51:24.741Z</time></trkpt><trkpt lat="45.7622962" lon="11.0169557"><ele>465.8</ele><time>2026-04-03T13:51:25.744Z</time></trkpt><trkpt lat="45.7623775" lon="11.0170167"><ele>466.0</ele><time>2026-04-03T13:51:26.747Z</time></trkpt><trkpt lat="45.7624338" lon="11.0170747"><ele>466.0</ele><time>2026-04-03T13:51:27.748Z</time></trkpt><trkpt lat="45.7624434" lon="11.0172447"><ele>466.0</ele><time>2026-04-03T13:51:29.733Z</time></trkpt><trkpt lat="45.7623947" lon="11.0173244"><ele>466.0</ele><time>2026-04-03T13:51:30.735Z</time></trkpt><trkpt lat="45.7623145" lon="11.0173932"><ele>466.0</ele><time>2026-04-03T13:51:31.728Z</time></trkpt><trkpt lat="45.7621985" lon="11.0174543"><ele>466.0</ele><time>2026-04-03T13:51:32.739Z</time></trkpt><trkpt lat="45.7620596" lon="11.0175017"><ele>468.4</ele><time>2026-04-03T13:51:33.749Z</time></trkpt><trkpt lat="45.7619622" lon="11.0175397"><ele>470.8</ele><time>2026-04-03T13:51:34.745Z</time></trkpt><trkpt lat="45.7618963" lon="11.0175749"><ele>473.19999999999993</ele><time>2026-04-03T13:51:35.75Z</time></trkpt><trkpt lat="45.7618425" lon="11.0176926"><ele>475.59999999999997</ele><time>2026-04-03T13:51:37.744Z</time></trkpt><trkpt lat="45.7619326" lon="11.017779"><ele>478.0</ele><time>2026-04-03T13:51:39.731Z</time></trkpt><trkpt lat="45.7620093" lon="11.0177866"><ele>480.25</ele><time>2026-04-03T13:51:40.745Z</time></trkpt><trkpt lat="45.7620986" lon="11.0177681"><ele>482.5</ele><time>2026-04-03T13:51:41.74Z</time></trkpt><trkpt lat="45.7622042" lon="11.0177431"><ele>484.75</ele><time>2026-04-03T13:51:42.74Z</time></trkpt><trkpt lat="45.7623371" lon="11.0177479"><ele>487.0</ele><time>2026-04-03T13:51:43.74Z</time></trkpt><trkpt lat="45.7624967" lon="11.0177831"><ele>487.0</ele><time>2026-04-03T13:51:44.734Z</time></trkpt><trkpt lat="45.7626843" lon="11.0178303"><ele>487.0</ele><time>2026-04-03T13:51:45.736Z</time></trkpt><trkpt lat="45.7628803" lon="11.0178508"><ele>487.0</ele><time>2026-04-03T13:51:46.745Z</time></trkpt><trkpt lat="45.7630821" lon="11.0178492"><ele>486.5</ele><time>2026-04-03T13:51:47.741Z</time></trkpt><trkpt lat="45.7632459" lon="11.0178461"><ele>486.0</ele><time>2026-04-03T13:51:48.745Z</time></trkpt><trkpt lat="45.7633613" lon="11.017845"><ele>485.5</ele><time>2026-04-03T13:51:49.74Z</time></trkpt><trkpt lat="45.7634547" lon="11.0178307"><ele>485.0</ele><time>2026-04-03T13:51:50.748Z</time></trkpt><trkpt lat="45.7635388" lon="11.0178217"><ele>484.99999999999994</ele><time>2026-04-03T13:51:51.751Z</time></trkpt><trkpt lat="45.7636209" lon="11.0178329"><ele>485.0</ele><time>2026-04-03T13:51:52.729Z</time></trkpt><trkpt lat="45.7637035" lon="11.0178781"><ele>485.0</ele><time>2026-04-03T13:51:53.745Z</time></trkpt><trkpt lat="45.7637723" lon="11.0179319"><ele>485.0</ele><time>2026-04-03T13:51:54.746Z</time></trkpt><trkpt lat="45.7638225" lon="11.0180006"><ele>484.99999999999994</ele><time>2026-04-03T13:51:55.749Z</time></trkpt><trkpt lat="45.7638396" lon="11.0181559"><ele>485.0</ele><time>2026-04-03T13:51:57.731Z</time></trkpt><trkpt lat="45.7637436" lon="11.0182525"><ele>485.0</ele><time>2026-04-03T13:51:59.738Z</time></trkpt><trkpt lat="45.7636547" lon="11.0182462"><ele>485.0</ele><time>2026-04-03T13:52:00.732Z</time></trkpt><trkpt lat="45.7635462" lon="11.0182202"><ele>485.0</ele><time>2026-04-03T13:52:01.748Z</time></trkpt><trkpt lat="45.7634318" lon="11.0181797"><ele>485.0</ele><time>2026-04-03T13:52:02.739Z</time></trkpt><trkpt lat="45.7633411" lon="11.0181618"><ele>485.0</ele><time>2026-04-03T13:52:03.745Z</time></trkpt><trkpt lat="45.7632298" lon="11.0182221"><ele>491.6</ele><time>2026-04-03T13:52:05.733Z</time></trkpt><trkpt lat="45.7631964" lon="11.0183705"><ele>498.2</ele><time>2026-04-03T13:52:07.728Z</time></trkpt><trkpt lat="45.7632178" lon="11.0184734"><ele>504.79999999999995</ele><time>2026-04-03T13:52:08.745Z</time></trkpt><trkpt lat="45.7632836" lon="11.0185934"><ele>511.4</ele><time>2026-04-03T13:52:09.753Z</time></trkpt><trkpt lat="45.7633651" lon="11.0187031"><ele>518.0</ele><time>2026-04-03T13:52:10.741Z</time></trkpt><trkpt lat="45.7634413" lon="11.0188063"><ele>518.0</ele><time>2026-04-03T13:52:11.755Z</time></trkpt><trkpt lat="45.7634899" lon="11.0188963"><ele>518.0</ele><time>2026-04-03T13:52:12.741Z</time></trkpt><trkpt lat="45.7635025" lon="11.0190077"><ele>518.0</ele><time>2026-04-03T13:52:13.732Z</time></trkpt><trkpt lat="45.7634861" lon="11.0191461"><ele>518.0</ele><time>2026-04-03T13:52:14.731Z</time></trkpt><trkpt lat="45.7634598" lon="11.019298"><ele>518.0</ele><time>2026-04-03T13:52:15.739Z</time></trkpt><trkpt lat="45.7634446" lon="11.0194308"><ele>518.8333333333333</ele><time>2026-04-03T13:52:16.732Z</time></trkpt><trkpt lat="45.7634492" lon="11.0195452"><ele>519.6666666666666</ele><time>2026-04-03T13:52:17.749Z</time></trkpt><trkpt lat="45.763484" lon="11.0196371"><ele>520.5</ele><time>2026-04-03T13:52:18.736Z</time></trkpt><trkpt lat="45.7635507" lon="11.0197293"><ele>521.3333333333334</ele><time>2026-04-03T13:52:19.726Z</time></trkpt><trkpt lat="45.7636239" lon="11.0197904"><ele>522.1666666666667</ele><time>2026-04-03T13:52:20.727Z</time></trkpt><trkpt lat="45.7636772" lon="11.0199038"><ele>523.0</ele><time>2026-04-03T13:52:22.734Z</time></trkpt><trkpt lat="45.7635847" lon="11.0199867"><ele>525.75</ele><time>2026-04-03T13:52:24.748Z</time></trkpt><trkpt lat="45.7635068" lon="11.0199683"><ele>528.5</ele><time>2026-04-03T13:52:25.748Z</time></trkpt><trkpt lat="45.763398" lon="11.0198893"><ele>531.25</ele><time>2026-04-03T13:52:26.748Z</time></trkpt><trkpt lat="45.7632802" lon="11.0197873"><ele>534.0</ele><time>2026-04-03T13:52:27.738Z</time></trkpt><trkpt lat="45.763171" lon="11.0196978"><ele>534.0</ele><time>2026-04-03T13:52:28.743Z</time></trkpt><trkpt lat="45.7630775" lon="11.019636"><ele>534.0</ele><time>2026-04-03T13:52:29.753Z</time></trkpt><trkpt lat="45.762987" lon="11.0196036"><ele>534.0</ele><time>2026-04-03T13:52:30.739Z</time></trkpt><trkpt lat="45.7628736" lon="11.0195992"><ele>534.0</ele><time>2026-04-03T13:52:31.755Z</time></trkpt><trkpt lat="45.7627573" lon="11.0195979"><ele>534.0</ele><time>2026-04-03T13:52:32.737Z</time></trkpt><trkpt lat="45.7626569" lon="11.019599"><ele>534.8</ele><time>2026-04-03T13:52:33.746Z</time></trkpt><trkpt lat="45.7625758" lon="11.0196065"><ele>535.5999999999999</ele><time>2026-04-03T13:52:34.746Z</time></trkpt><trkpt lat="45.7625102" lon="11.0196333"><ele>536.4</ele><time>2026-04-03T13:52:35.747Z</time></trkpt><trkpt lat="45.7624507" lon="11.0197266"><ele>537.1999999999999</ele><time>2026-04-03T13:52:36.737Z</time></trkpt><trkpt lat="45.7623874" lon="11.0198706"><ele>538.0</ele><time>2026-04-03T13:52:37.745Z</time></trkpt><trkpt lat="45.7623285" lon="11.0200407"><ele>543.0</ele><time>2026-04-03T13:52:38.746Z</time></trkpt><trkpt lat="45.7622574" lon="11.0202031"><ele>548.0</ele><time>2026-04-03T13:52:39.741Z</time></trkpt><trkpt lat="45.7621866" lon="11.0203447"><ele>553.0</ele><time>2026-04-03T13:52:40.742Z</time></trkpt><trkpt lat="45.7621139" lon="11.0204661"><ele>558.0</ele><time>2026-04-03T13:52:41.74Z</time></trkpt><trkpt lat="45.7620586" lon="11.0205998"><ele>558.0</ele><time>2026-04-03T13:52:42.741Z</time></trkpt><trkpt lat="45.762024" lon="11.0207168"><ele>558.0</ele><time>2026-04-03T13:52:43.735Z</time></trkpt><trkpt lat="45.7620069" lon="11.0208262"><ele>558.0</ele><time>2026-04-03T13:52:44.753Z</time></trkpt><trkpt lat="45.7620136" lon="11.0209459"><ele>558.0</ele><time>2026-04-03T13:52:45.732Z</time></trkpt><trkpt lat="45.762043" lon="11.0210621"><ele>558.0</ele><time>2026-04-03T13:52:46.742Z</time></trkpt><trkpt lat="45.7620844" lon="11.0211704"><ele>558.0</ele><time>2026-04-03T13:52:47.741Z</time></trkpt><trkpt lat="45.7621432" lon="11.021239"><ele>560.8</ele><time>2026-04-03T13:52:48.742Z</time></trkpt><trkpt lat="45.7622202" lon="11.0212823"><ele>563.5999999999999</ele><time>2026-04-03T13:52:49.744Z</time></trkpt><trkpt lat="45.7623229" lon="11.0213061"><ele>566.4000000000001</ele><time>2026-04-03T13:52:50.737Z</time></trkpt><trkpt lat="45.7624309" lon="11.0213248"><ele>569.2</ele><time>2026-04-03T13:52:51.74Z</time></trkpt><trkpt lat="45.7625334" lon="11.0213274"><ele>572.0</ele><time>2026-04-03T13:52:52.73Z</time></trkpt><trkpt lat="45.7626241" lon="11.0212964"><ele>570.8000000000001</ele><time>2026-04-03T13:52:53.749Z</time></trkpt><trkpt lat="45.7627056" lon="11.02122"><ele>569.6</ele><time>2026-04-03T13:52:54.736Z</time></trkpt><trkpt lat="45.7627804" lon="11.0211226"><ele>568.4000000000001</ele><time>2026-04-03T13:52:55.749Z</time></trkpt><trkpt lat="45.7628361" lon="11.021029"><ele>567.2</ele><time>2026-04-03T13:52:56.74Z</time></trkpt><trkpt lat="45.7629263" lon="11.0209659"><ele>566.0</ele><time>2026-04-03T13:52:58.751Z</time></trkpt><trkpt lat="45.7629897" lon="11.0210518"><ele>566.0</ele><time>2026-04-03T13:53:01.722Z</time></trkpt><trkpt lat="45.7629129" lon="11.0211728"><ele>566.0</ele><time>2026-04-03T13:53:03.75Z</time></trkpt><trkpt lat="45.7628584" lon="11.0212211"><ele>566.0</ele><time>2026-04-03T13:53:04.737Z</time></trkpt><trkpt lat="45.7628127" lon="11.021352"><ele>566.0</ele><time>2026-04-03T13:53:06.735Z</time></trkpt><trkpt lat="45.7628196" lon="11.0214466"><ele>566.0</ele><time>2026-04-03T13:53:07.745Z</time></trkpt><trkpt lat="45.7628288" lon="11.0215527"><ele>566.0</ele><time>2026-04-03T13:53:08.734Z</time></trkpt><trkpt lat="45.7628303" lon="11.0216558"><ele>568.6666666666666</ele><time>2026-04-03T13:53:09.735Z</time></trkpt><trkpt lat="45.7628093" lon="11.0217632"><ele>571.3333333333333</ele><time>2026-04-03T13:53:10.752Z</time></trkpt><trkpt lat="45.7627681" lon="11.0218853"><ele>574.0</ele><time>2026-04-03T13:53:11.741Z</time></trkpt><trkpt lat="45.762727" lon="11.0220137"><ele>576.6666666666666</ele><time>2026-04-03T13:53:12.749Z</time></trkpt><trkpt lat="45.7627086" lon="11.0221318"><ele>579.3333333333334</ele><time>2026-04-03T13:53:13.732Z</time></trkpt><trkpt lat="45.762698" lon="11.0222442"><ele>582.0</ele><time>2026-04-03T13:53:14.735Z</time></trkpt><trkpt lat="45.7626951" lon="11.0223576"><ele>582.6666666666666</ele><time>2026-04-03T13:53:15.747Z</time></trkpt><trkpt lat="45.7627094" lon="11.022457"><ele>583.3333333333334</ele><time>2026-04-03T13:53:16.743Z</time></trkpt><trkpt lat="45.7627469" lon="11.0225486"><ele>584.0</ele><time>2026-04-03T13:53:17.745Z</time></trkpt><trkpt lat="45.7627907" lon="11.0226322"><ele>584.6666666666667</ele><time>2026-04-03T13:53:18.744Z</time></trkpt><trkpt lat="45.7628578" lon="11.0227017"><ele>585.3333333333334</ele><time>2026-04-03T13:53:19.729Z</time></trkpt><trkpt lat="45.7629544" lon="11.02274"><ele>586.0</ele><time>2026-04-03T13:53:20.729Z</time></trkpt><trkpt lat="45.7630618" lon="11.0227458"><ele>589.25</ele><time>2026-04-03T13:53:21.741Z</time></trkpt><trkpt lat="45.7631671" lon="11.022753"><ele>592.5</ele><time>2026-04-03T13:53:22.74Z</time></trkpt><trkpt lat="45.7632759" lon="11.0227752"><ele>595.75</ele><time>2026-04-03T13:53:23.752Z</time></trkpt><trkpt lat="45.7633911" lon="11.0228209"><ele>599.0</ele><time>2026-04-03T13:53:24.756Z</time></trkpt><trkpt lat="45.7635215" lon="11.0228851"><ele>598.0</ele><time>2026-04-03T13:53:25.746Z</time></trkpt><trkpt lat="45.7636555" lon="11.0229555"><ele>597.0</ele><time>2026-04-03T13:53:26.737Z</time></trkpt><trkpt lat="45.7637663" lon="11.0230155"><ele>596.0</ele><time>2026-04-03T13:53:27.729Z</time></trkpt><trkpt lat="45.7638526" lon="11.0230622"><ele>595.0</ele><time>2026-04-03T13:53:28.749Z</time></trkpt><trkpt lat="45.7639177" lon="11.0231057"><ele>594.0</ele><time>2026-04-03T13:53:29.751Z</time></trkpt><trkpt lat="45.7639717" lon="11.0231731"><ele>594.0</ele><time>2026-04-03T13:53:30.739Z</time></trkpt><trkpt lat="45.7640259" lon="11.0232906"><ele>594.0</ele><time>2026-04-03T13:53:31.738Z</time></trkpt><trkpt lat="45.7640815" lon="11.0234294"><ele>594.0</ele><time>2026-04-03T13:53:32.739Z</time></trkpt><trkpt lat="45.7641352" lon="11.0235443"><ele>594.0</ele><time>2026-04-03T13:53:33.752Z</time></trkpt><trkpt lat="45.7641738" lon="11.0236332"><ele>594.0</ele><time>2026-04-03T13:53:34.744Z</time></trkpt><trkpt lat="45.7641722" lon="11.0237524"><ele>596.4</ele><time>2026-04-03T13:53:36.74Z</time></trkpt><trkpt lat="45.7640549" lon="11.0238141"><ele>598.8</ele><time>2026-04-03T13:53:38.741Z</time></trkpt><trkpt lat="45.7639702" lon="11.0238373"><ele>601.2</ele><time>2026-04-03T13:53:39.743Z</time></trkpt><trkpt lat="45.7638874" lon="11.0238603"><ele>603.6</ele><time>2026-04-03T13:53:40.747Z</time></trkpt><trkpt lat="45.7638153" lon="11.0238877"><ele>606.0</ele><time>2026-04-03T13:53:41.744Z</time></trkpt><trkpt lat="45.7637563" lon="11.0240354"><ele>606.0</ele><time>2026-04-03T13:53:43.747Z</time></trkpt><trkpt lat="45.7637819" lon="11.0241825"><ele>620.0</ele><time>2026-04-03T13:53:45.735Z</time></trkpt><trkpt lat="45.7638431" lon="11.024251"><ele>620.0</ele><time>2026-04-03T13:53:46.757Z</time></trkpt><trkpt lat="45.763927" lon="11.0243204"><ele>620.0</ele><time>2026-04-03T13:53:47.741Z</time></trkpt></trkseg></trk></gpx>